<?xml version="1.0" encoding="UTF-8" standalone="no" ?>
<gpx xmlns="http://www.topografix.com/GPX/1/1" creator="MapSource 6.13.2" version="1.1" xmlns:xsi="http://www.w3.org/2001/XMLSchema-instance" xsi:schemaLocation="http://www.garmin.com/xmlschemas/GpxExtensions/v3 http://www.garmin.com/xmlschemas/GpxExtensions/v3/GpxExtensionsv3.xsd http://www.topografix.com/GPX/1/1 http://www.topografix.com/GPX/1/1/gpx.xsd">

  <metadata>
    <link href="http://www.knallwade.de/">
      <text>Knallwade</text>
    </link>
    <time>2007-11-16T16:47:37Z</time>
    <bounds maxlat="28.5696243" maxlon="-16.2630547" minlat="28.5487915" minlon="-16.2777310"/>
  </metadata>

  <trk>
    <name>Teneriffa, Roque de Taborno</name>
    <trkseg>
      <trkpt lat="28.5538467" lon="-16.2769194">
        <ele>611.0551758</ele>
        <time>2007-11-16T10:28:58Z</time>
      </trkpt>
      <trkpt lat="28.5538364" lon="-16.2769176">
        <ele>609.6132813</ele>
        <time>2007-11-16T10:29:20Z</time>
      </trkpt>
      <trkpt lat="28.5538206" lon="-16.2769340">
        <ele>610.0937500</ele>
        <time>2007-11-16T10:29:23Z</time>
      </trkpt>
      <trkpt lat="28.5535997" lon="-16.2770630">
        <ele>613.4584961</ele>
        <time>2007-11-16T10:29:44Z</time>
      </trkpt>
      <trkpt lat="28.5535415" lon="-16.2770966">
        <ele>617.3037109</ele>
        <time>2007-11-16T10:29:49Z</time>
      </trkpt>
      <trkpt lat="28.5535204" lon="-16.2771111">
        <ele>618.7456055</ele>
        <time>2007-11-16T10:29:51Z</time>
      </trkpt>
      <trkpt lat="28.5534536" lon="-16.2771252">
        <ele>620.1877441</ele>
        <time>2007-11-16T10:29:57Z</time>
      </trkpt>
      <trkpt lat="28.5533712" lon="-16.2772002">
        <ele>623.0717773</ele>
        <time>2007-11-16T10:30:06Z</time>
      </trkpt>
      <trkpt lat="28.5531924" lon="-16.2773099">
        <ele>625.9555664</ele>
        <time>2007-11-16T10:30:22Z</time>
      </trkpt>
      <trkpt lat="28.5529133" lon="-16.2775062">
        <ele>627.8781738</ele>
        <time>2007-11-16T10:30:48Z</time>
      </trkpt>
      <trkpt lat="28.5526653" lon="-16.2776679">
        <ele>624.5136719</ele>
        <time>2007-11-16T10:31:12Z</time>
      </trkpt>
      <trkpt lat="28.5525008" lon="-16.2777310">
        <ele>621.6296387</ele>
        <time>2007-11-16T10:31:27Z</time>
      </trkpt>
      <trkpt lat="28.5523194" lon="-16.2777104">
        <ele>617.7841797</ele>
        <time>2007-11-16T10:31:43Z</time>
      </trkpt>
      <trkpt lat="28.5521801" lon="-16.2776871">
        <ele>613.9389648</ele>
        <time>2007-11-16T10:32:00Z</time>
      </trkpt>
      <trkpt lat="28.5521435" lon="-16.2776190">
        <ele>611.0551758</ele>
        <time>2007-11-16T10:32:09Z</time>
      </trkpt>
      <trkpt lat="28.5521399" lon="-16.2776103">
        <ele>611.0551758</ele>
        <time>2007-11-16T10:32:10Z</time>
      </trkpt>
      <trkpt lat="28.5520897" lon="-16.2774836">
        <ele>606.7292480</ele>
        <time>2007-11-16T10:32:26Z</time>
      </trkpt>
      <trkpt lat="28.5520613" lon="-16.2774147">
        <ele>603.8452148</ele>
        <time>2007-11-16T10:32:36Z</time>
      </trkpt>
      <trkpt lat="28.5519985" lon="-16.2773456">
        <ele>600.0000000</ele>
        <time>2007-11-16T10:32:50Z</time>
      </trkpt>
      <trkpt lat="28.5520035" lon="-16.2773162">
        <ele>599.0385742</ele>
        <time>2007-11-16T10:32:54Z</time>
      </trkpt>
      <trkpt lat="28.5520410" lon="-16.2772669">
        <ele>596.1547852</ele>
        <time>2007-11-16T10:33:03Z</time>
      </trkpt>
      <trkpt lat="28.5520455" lon="-16.2772419">
        <ele>594.7126465</ele>
        <time>2007-11-16T10:33:09Z</time>
      </trkpt>
      <trkpt lat="28.5519881" lon="-16.2772000">
        <ele>593.2707520</ele>
        <time>2007-11-16T10:33:17Z</time>
      </trkpt>
      <trkpt lat="28.5518953" lon="-16.2771001">
        <ele>589.9062500</ele>
        <time>2007-11-16T10:33:30Z</time>
      </trkpt>
      <trkpt lat="28.5518943" lon="-16.2770923">
        <ele>589.9062500</ele>
        <time>2007-11-16T10:33:31Z</time>
      </trkpt>
      <trkpt lat="28.5519022" lon="-16.2770292">
        <ele>588.4643555</ele>
        <time>2007-11-16T10:33:38Z</time>
      </trkpt>
      <trkpt lat="28.5519481" lon="-16.2769128">
        <ele>588.4643555</ele>
        <time>2007-11-16T10:33:50Z</time>
      </trkpt>
      <trkpt lat="28.5519509" lon="-16.2767550">
        <ele>591.8288574</ele>
        <time>2007-11-16T10:34:04Z</time>
      </trkpt>
      <trkpt lat="28.5519705" lon="-16.2766815">
        <ele>591.8288574</ele>
        <time>2007-11-16T10:34:10Z</time>
      </trkpt>
      <trkpt lat="28.5519587" lon="-16.2766013">
        <ele>592.3095703</ele>
        <time>2007-11-16T10:34:16Z</time>
      </trkpt>
      <trkpt lat="28.5518812" lon="-16.2763708">
        <ele>593.2707520</ele>
        <time>2007-11-16T10:34:32Z</time>
      </trkpt>
      <trkpt lat="28.5518954" lon="-16.2760704">
        <ele>595.1933594</ele>
        <time>2007-11-16T10:34:52Z</time>
      </trkpt>
      <trkpt lat="28.5518415" lon="-16.2759247">
        <ele>594.7126465</ele>
        <time>2007-11-16T10:35:04Z</time>
      </trkpt>
      <trkpt lat="28.5517957" lon="-16.2759226">
        <ele>594.2321777</ele>
        <time>2007-11-16T10:35:08Z</time>
      </trkpt>
      <trkpt lat="28.5514940" lon="-16.2759739">
        <ele>591.8288574</ele>
        <time>2007-11-16T10:35:32Z</time>
      </trkpt>
      <trkpt lat="28.5512500" lon="-16.2759259">
        <ele>588.4643555</ele>
        <time>2007-11-16T10:35:51Z</time>
      </trkpt>
      <trkpt lat="28.5509454" lon="-16.2758668">
        <ele>586.5415039</ele>
        <time>2007-11-16T10:36:13Z</time>
      </trkpt>
      <trkpt lat="28.5508666" lon="-16.2756663">
        <ele>584.1381836</ele>
        <time>2007-11-16T10:36:29Z</time>
      </trkpt>
      <trkpt lat="28.5508314" lon="-16.2754134">
        <ele>585.5800781</ele>
        <time>2007-11-16T10:36:46Z</time>
      </trkpt>
      <trkpt lat="28.5507796" lon="-16.2752745">
        <ele>588.4643555</ele>
        <time>2007-11-16T10:36:57Z</time>
      </trkpt>
      <trkpt lat="28.5506926" lon="-16.2749909">
        <ele>590.3869629</ele>
        <time>2007-11-16T10:37:19Z</time>
      </trkpt>
      <trkpt lat="28.5505271" lon="-16.2749095">
        <ele>591.8288574</ele>
        <time>2007-11-16T10:37:36Z</time>
      </trkpt>
      <trkpt lat="28.5503536" lon="-16.2748639">
        <ele>588.9450684</ele>
        <time>2007-11-16T10:37:52Z</time>
      </trkpt>
      <trkpt lat="28.5503289" lon="-16.2748515">
        <ele>587.5026855</ele>
        <time>2007-11-16T10:37:55Z</time>
      </trkpt>
      <trkpt lat="28.5503052" lon="-16.2748505">
        <ele>587.0219727</ele>
        <time>2007-11-16T10:37:58Z</time>
      </trkpt>
      <trkpt lat="28.5502590" lon="-16.2748615">
        <ele>585.0996094</ele>
        <time>2007-11-16T10:38:03Z</time>
      </trkpt>
      <trkpt lat="28.5502377" lon="-16.2748646">
        <ele>584.1381836</ele>
        <time>2007-11-16T10:38:05Z</time>
      </trkpt>
      <trkpt lat="28.5501311" lon="-16.2748244">
        <ele>580.7736816</ele>
        <time>2007-11-16T10:38:20Z</time>
      </trkpt>
      <trkpt lat="28.5500721" lon="-16.2748086">
        <ele>577.4091797</ele>
        <time>2007-11-16T10:38:28Z</time>
      </trkpt>
      <trkpt lat="28.5500648" lon="-16.2748067">
        <ele>577.4091797</ele>
        <time>2007-11-16T10:38:29Z</time>
      </trkpt>
      <trkpt lat="28.5500125" lon="-16.2748571">
        <ele>575.0058594</ele>
        <time>2007-11-16T10:38:37Z</time>
      </trkpt>
      <trkpt lat="28.5499632" lon="-16.2748867">
        <ele>572.6025391</ele>
        <time>2007-11-16T10:38:46Z</time>
      </trkpt>
      <trkpt lat="28.5499626" lon="-16.2748634">
        <ele>571.6408691</ele>
        <time>2007-11-16T10:38:48Z</time>
      </trkpt>
      <trkpt lat="28.5498579" lon="-16.2747441">
        <ele>568.7570801</ele>
        <time>2007-11-16T10:39:02Z</time>
      </trkpt>
      <trkpt lat="28.5498486" lon="-16.2747364">
        <ele>568.2763672</ele>
        <time>2007-11-16T10:39:03Z</time>
      </trkpt>
      <trkpt lat="28.5497970" lon="-16.2746881">
        <ele>566.3537598</ele>
        <time>2007-11-16T10:39:15Z</time>
      </trkpt>
      <trkpt lat="28.5497892" lon="-16.2747163">
        <ele>565.8732910</ele>
        <time>2007-11-16T10:40:10Z</time>
      </trkpt>
      <trkpt lat="28.5497546" lon="-16.2747597">
        <ele>563.9504395</ele>
        <time>2007-11-16T10:40:18Z</time>
      </trkpt>
      <trkpt lat="28.5497442" lon="-16.2747132">
        <ele>562.5085449</ele>
        <time>2007-11-16T10:40:22Z</time>
      </trkpt>
      <trkpt lat="28.5497410" lon="-16.2747016">
        <ele>562.0280762</ele>
        <time>2007-11-16T10:40:23Z</time>
      </trkpt>
      <trkpt lat="28.5497223" lon="-16.2746977">
        <ele>561.5473633</ele>
        <time>2007-11-16T10:40:25Z</time>
      </trkpt>
      <trkpt lat="28.5496945" lon="-16.2748214">
        <ele>558.1828613</ele>
        <time>2007-11-16T10:40:35Z</time>
      </trkpt>
      <trkpt lat="28.5496253" lon="-16.2749456">
        <ele>554.3374023</ele>
        <time>2007-11-16T10:40:48Z</time>
      </trkpt>
      <trkpt lat="28.5496072" lon="-16.2749528">
        <ele>553.3759766</ele>
        <time>2007-11-16T10:40:51Z</time>
      </trkpt>
      <trkpt lat="28.5496057" lon="-16.2748546">
        <ele>551.9340820</ele>
        <time>2007-11-16T10:40:59Z</time>
      </trkpt>
      <trkpt lat="28.5495784" lon="-16.2748537">
        <ele>550.0114746</ele>
        <time>2007-11-16T10:41:03Z</time>
      </trkpt>
      <trkpt lat="28.5495679" lon="-16.2748800">
        <ele>549.5307617</ele>
        <time>2007-11-16T10:41:05Z</time>
      </trkpt>
      <trkpt lat="28.5495415" lon="-16.2749691">
        <ele>548.0888672</ele>
        <time>2007-11-16T10:41:12Z</time>
      </trkpt>
      <trkpt lat="28.5494580" lon="-16.2750337">
        <ele>542.8015137</ele>
        <time>2007-11-16T10:41:24Z</time>
      </trkpt>
      <trkpt lat="28.5494420" lon="-16.2750376">
        <ele>543.7628174</ele>
        <time>2007-11-16T10:41:26Z</time>
      </trkpt>
      <trkpt lat="28.5493488" lon="-16.2750666">
        <ele>540.8789063</ele>
        <time>2007-11-16T10:41:36Z</time>
      </trkpt>
      <trkpt lat="28.5493259" lon="-16.2750552">
        <ele>540.8789063</ele>
        <time>2007-11-16T10:41:38Z</time>
      </trkpt>
      <trkpt lat="28.5492081" lon="-16.2748135">
        <ele>541.3594971</ele>
        <time>2007-11-16T10:41:57Z</time>
      </trkpt>
      <trkpt lat="28.5491166" lon="-16.2746081">
        <ele>541.3594971</ele>
        <time>2007-11-16T10:42:15Z</time>
      </trkpt>
      <trkpt lat="28.5490842" lon="-16.2745214">
        <ele>540.3983154</ele>
        <time>2007-11-16T10:42:23Z</time>
      </trkpt>
      <trkpt lat="28.5490877" lon="-16.2744985">
        <ele>539.4368896</ele>
        <time>2007-11-16T10:42:25Z</time>
      </trkpt>
      <trkpt lat="28.5490866" lon="-16.2744375">
        <ele>537.5142822</ele>
        <time>2007-11-16T10:42:30Z</time>
      </trkpt>
      <trkpt lat="28.5490215" lon="-16.2744625">
        <ele>535.1109619</ele>
        <time>2007-11-16T10:42:39Z</time>
      </trkpt>
      <trkpt lat="28.5490095" lon="-16.2744293">
        <ele>533.6689453</ele>
        <time>2007-11-16T10:42:42Z</time>
      </trkpt>
      <trkpt lat="28.5490105" lon="-16.2744059">
        <ele>532.7077637</ele>
        <time>2007-11-16T10:42:44Z</time>
      </trkpt>
      <trkpt lat="28.5490065" lon="-16.2743153">
        <ele>530.3044434</ele>
        <time>2007-11-16T10:42:52Z</time>
      </trkpt>
      <trkpt lat="28.5490451" lon="-16.2742666">
        <ele>528.3818359</ele>
        <time>2007-11-16T10:42:57Z</time>
      </trkpt>
      <trkpt lat="28.5490504" lon="-16.2742563">
        <ele>527.9010010</ele>
        <time>2007-11-16T10:42:58Z</time>
      </trkpt>
      <trkpt lat="28.5489687" lon="-16.2741988">
        <ele>525.9783936</ele>
        <time>2007-11-16T10:43:08Z</time>
      </trkpt>
      <trkpt lat="28.5489180" lon="-16.2741106">
        <ele>523.5751953</ele>
        <time>2007-11-16T10:43:18Z</time>
      </trkpt>
      <trkpt lat="28.5488972" lon="-16.2741024">
        <ele>521.6525879</ele>
        <time>2007-11-16T10:43:20Z</time>
      </trkpt>
      <trkpt lat="28.5488674" lon="-16.2740377">
        <ele>519.7298584</ele>
        <time>2007-11-16T10:43:32Z</time>
      </trkpt>
      <trkpt lat="28.5488501" lon="-16.2740163">
        <ele>518.7685547</ele>
        <time>2007-11-16T10:43:35Z</time>
      </trkpt>
      <trkpt lat="28.5488089" lon="-16.2739868">
        <ele>518.7685547</ele>
        <time>2007-11-16T10:43:39Z</time>
      </trkpt>
      <trkpt lat="28.5488567" lon="-16.2738044">
        <ele>519.2492676</ele>
        <time>2007-11-16T10:43:55Z</time>
      </trkpt>
      <trkpt lat="28.5490919" lon="-16.2736057">
        <ele>520.2105713</ele>
        <time>2007-11-16T10:44:17Z</time>
      </trkpt>
      <trkpt lat="28.5493354" lon="-16.2734327">
        <ele>521.6525879</ele>
        <time>2007-11-16T10:44:38Z</time>
      </trkpt>
      <trkpt lat="28.5494312" lon="-16.2733209">
        <ele>522.1331787</ele>
        <time>2007-11-16T10:44:49Z</time>
      </trkpt>
      <trkpt lat="28.5494021" lon="-16.2731892">
        <ele>522.1331787</ele>
        <time>2007-11-16T10:44:58Z</time>
      </trkpt>
      <trkpt lat="28.5494243" lon="-16.2729793">
        <ele>521.6525879</ele>
        <time>2007-11-16T10:45:12Z</time>
      </trkpt>
      <trkpt lat="28.5494452" lon="-16.2727495">
        <ele>520.6912842</ele>
        <time>2007-11-16T10:45:27Z</time>
      </trkpt>
      <trkpt lat="28.5494504" lon="-16.2726955">
        <ele>519.7298584</ele>
        <time>2007-11-16T10:45:31Z</time>
      </trkpt>
      <trkpt lat="28.5494440" lon="-16.2725697">
        <ele>517.3266602</ele>
        <time>2007-11-16T10:45:39Z</time>
      </trkpt>
      <trkpt lat="28.5494384" lon="-16.2724494">
        <ele>517.3266602</ele>
        <time>2007-11-16T10:45:46Z</time>
      </trkpt>
      <trkpt lat="28.5495099" lon="-16.2723992">
        <ele>515.8846436</ele>
        <time>2007-11-16T10:45:53Z</time>
      </trkpt>
      <trkpt lat="28.5495826" lon="-16.2721856">
        <ele>514.4426270</ele>
        <time>2007-11-16T10:46:08Z</time>
      </trkpt>
      <trkpt lat="28.5496586" lon="-16.2720497">
        <ele>514.9233398</ele>
        <time>2007-11-16T10:46:18Z</time>
      </trkpt>
      <trkpt lat="28.5497124" lon="-16.2717994">
        <ele>515.4040527</ele>
        <time>2007-11-16T10:46:35Z</time>
      </trkpt>
      <trkpt lat="28.5497846" lon="-16.2715466">
        <ele>513.9620361</ele>
        <time>2007-11-16T10:46:52Z</time>
      </trkpt>
      <trkpt lat="28.5498981" lon="-16.2713591">
        <ele>510.5972900</ele>
        <time>2007-11-16T10:47:08Z</time>
      </trkpt>
      <trkpt lat="28.5499069" lon="-16.2713534">
        <ele>511.0780029</ele>
        <time>2007-11-16T10:47:09Z</time>
      </trkpt>
      <trkpt lat="28.5499284" lon="-16.2713451">
        <ele>510.5972900</ele>
        <time>2007-11-16T10:47:11Z</time>
      </trkpt>
      <trkpt lat="28.5499986" lon="-16.2712793">
        <ele>508.1940918</ele>
        <time>2007-11-16T10:47:21Z</time>
      </trkpt>
      <trkpt lat="28.5499915" lon="-16.2712108">
        <ele>504.3488770</ele>
        <time>2007-11-16T10:47:30Z</time>
      </trkpt>
      <trkpt lat="28.5500078" lon="-16.2712015">
        <ele>504.3488770</ele>
        <time>2007-11-16T10:47:32Z</time>
      </trkpt>
      <trkpt lat="28.5500115" lon="-16.2711115">
        <ele>500.0229492</ele>
        <time>2007-11-16T10:47:43Z</time>
      </trkpt>
      <trkpt lat="28.5500164" lon="-16.2711032">
        <ele>500.0229492</ele>
        <time>2007-11-16T10:47:44Z</time>
      </trkpt>
      <trkpt lat="28.5500775" lon="-16.2710528">
        <ele>497.1389160</ele>
        <time>2007-11-16T10:47:57Z</time>
      </trkpt>
      <trkpt lat="28.5500793" lon="-16.2709671">
        <ele>494.7355957</ele>
        <time>2007-11-16T10:48:05Z</time>
      </trkpt>
      <trkpt lat="28.5500939" lon="-16.2709151">
        <ele>491.8516846</ele>
        <time>2007-11-16T10:48:15Z</time>
      </trkpt>
      <trkpt lat="28.5501222" lon="-16.2709015">
        <ele>490.8903809</ele>
        <time>2007-11-16T10:48:18Z</time>
      </trkpt>
      <trkpt lat="28.5500788" lon="-16.2708220">
        <ele>487.5256348</ele>
        <time>2007-11-16T10:48:30Z</time>
      </trkpt>
      <trkpt lat="28.5501614" lon="-16.2707976">
        <ele>484.1611328</ele>
        <time>2007-11-16T10:48:41Z</time>
      </trkpt>
      <trkpt lat="28.5501926" lon="-16.2708001">
        <ele>482.7192383</ele>
        <time>2007-11-16T10:48:45Z</time>
      </trkpt>
      <trkpt lat="28.5502663" lon="-16.2707603">
        <ele>480.7966309</ele>
        <time>2007-11-16T10:48:59Z</time>
      </trkpt>
      <trkpt lat="28.5502557" lon="-16.2707421">
        <ele>478.8739014</ele>
        <time>2007-11-16T10:49:18Z</time>
      </trkpt>
      <trkpt lat="28.5502693" lon="-16.2707142">
        <ele>479.8350830</ele>
        <time>2007-11-16T10:49:40Z</time>
      </trkpt>
      <trkpt lat="28.5502690" lon="-16.2707193">
        <ele>478.3931885</ele>
        <time>2007-11-16T10:51:08Z</time>
      </trkpt>
      <trkpt lat="28.5502593" lon="-16.2707171">
        <ele>478.3931885</ele>
        <time>2007-11-16T10:51:10Z</time>
      </trkpt>
      <trkpt lat="28.5501580" lon="-16.2706518">
        <ele>476.4705811</ele>
        <time>2007-11-16T10:51:23Z</time>
      </trkpt>
      <trkpt lat="28.5501210" lon="-16.2706307">
        <ele>475.0286865</ele>
        <time>2007-11-16T10:51:41Z</time>
      </trkpt>
      <trkpt lat="28.5501052" lon="-16.2706218">
        <ele>474.5479736</ele>
        <time>2007-11-16T10:51:45Z</time>
      </trkpt>
      <trkpt lat="28.5500398" lon="-16.2705892">
        <ele>471.6639404</ele>
        <time>2007-11-16T10:51:52Z</time>
      </trkpt>
      <trkpt lat="28.5500156" lon="-16.2705767">
        <ele>471.1833496</ele>
        <time>2007-11-16T10:51:56Z</time>
      </trkpt>
      <trkpt lat="28.5500414" lon="-16.2705107">
        <ele>470.2219238</ele>
        <time>2007-11-16T10:52:02Z</time>
      </trkpt>
      <trkpt lat="28.5500772" lon="-16.2704871">
        <ele>469.7413330</ele>
        <time>2007-11-16T10:52:11Z</time>
      </trkpt>
      <trkpt lat="28.5501941" lon="-16.2704410">
        <ele>464.9348145</ele>
        <time>2007-11-16T10:52:23Z</time>
      </trkpt>
      <trkpt lat="28.5502506" lon="-16.2704250">
        <ele>465.4155273</ele>
        <time>2007-11-16T10:52:28Z</time>
      </trkpt>
      <trkpt lat="28.5503339" lon="-16.2704510">
        <ele>465.4155273</ele>
        <time>2007-11-16T10:52:35Z</time>
      </trkpt>
      <trkpt lat="28.5505106" lon="-16.2703723">
        <ele>468.7800293</ele>
        <time>2007-11-16T10:52:53Z</time>
      </trkpt>
      <trkpt lat="28.5505828" lon="-16.2703102">
        <ele>471.1833496</ele>
        <time>2007-11-16T10:53:04Z</time>
      </trkpt>
      <trkpt lat="28.5506554" lon="-16.2702415">
        <ele>474.5479736</ele>
        <time>2007-11-16T10:53:18Z</time>
      </trkpt>
      <trkpt lat="28.5506839" lon="-16.2702205">
        <ele>476.4705811</ele>
        <time>2007-11-16T10:53:23Z</time>
      </trkpt>
      <trkpt lat="28.5508143" lon="-16.2701837">
        <ele>479.3544922</ele>
        <time>2007-11-16T10:53:39Z</time>
      </trkpt>
      <trkpt lat="28.5509172" lon="-16.2701656">
        <ele>481.2772217</ele>
        <time>2007-11-16T10:53:56Z</time>
      </trkpt>
      <trkpt lat="28.5509345" lon="-16.2701649">
        <ele>481.2772217</ele>
        <time>2007-11-16T10:54:02Z</time>
      </trkpt>
      <trkpt lat="28.5509894" lon="-16.2701752">
        <ele>481.7578125</ele>
        <time>2007-11-16T10:54:07Z</time>
      </trkpt>
      <trkpt lat="28.5511255" lon="-16.2701933">
        <ele>485.1224365</ele>
        <time>2007-11-16T10:54:22Z</time>
      </trkpt>
      <trkpt lat="28.5512211" lon="-16.2701294">
        <ele>488.4871826</ele>
        <time>2007-11-16T10:54:33Z</time>
      </trkpt>
      <trkpt lat="28.5512246" lon="-16.2700535">
        <ele>489.9290771</ele>
        <time>2007-11-16T10:54:40Z</time>
      </trkpt>
      <trkpt lat="28.5512236" lon="-16.2700333">
        <ele>491.3709717</ele>
        <time>2007-11-16T10:54:42Z</time>
      </trkpt>
      <trkpt lat="28.5511888" lon="-16.2699019">
        <ele>494.7355957</ele>
        <time>2007-11-16T10:54:59Z</time>
      </trkpt>
      <trkpt lat="28.5511687" lon="-16.2698162">
        <ele>498.5809326</ele>
        <time>2007-11-16T10:55:09Z</time>
      </trkpt>
      <trkpt lat="28.5510981" lon="-16.2696916">
        <ele>501.4648438</ele>
        <time>2007-11-16T10:55:25Z</time>
      </trkpt>
      <trkpt lat="28.5510945" lon="-16.2696682">
        <ele>502.4261475</ele>
        <time>2007-11-16T10:55:27Z</time>
      </trkpt>
      <trkpt lat="28.5511578" lon="-16.2695253">
        <ele>501.9455566</ele>
        <time>2007-11-16T10:55:38Z</time>
      </trkpt>
      <trkpt lat="28.5511757" lon="-16.2694596">
        <ele>503.8681641</ele>
        <time>2007-11-16T10:55:50Z</time>
      </trkpt>
      <trkpt lat="28.5511945" lon="-16.2693987">
        <ele>507.2327881</ele>
        <time>2007-11-16T10:56:00Z</time>
      </trkpt>
      <trkpt lat="28.5512691" lon="-16.2693243">
        <ele>510.5972900</ele>
        <time>2007-11-16T10:56:14Z</time>
      </trkpt>
      <trkpt lat="28.5512736" lon="-16.2692402">
        <ele>513.4814453</ele>
        <time>2007-11-16T10:56:31Z</time>
      </trkpt>
      <trkpt lat="28.5512109" lon="-16.2692342">
        <ele>513.9620361</ele>
        <time>2007-11-16T10:56:39Z</time>
      </trkpt>
      <trkpt lat="28.5511736" lon="-16.2691517">
        <ele>517.3266602</ele>
        <time>2007-11-16T10:56:49Z</time>
      </trkpt>
      <trkpt lat="28.5511768" lon="-16.2691457">
        <ele>517.3266602</ele>
        <time>2007-11-16T10:56:50Z</time>
      </trkpt>
      <trkpt lat="28.5512282" lon="-16.2691007">
        <ele>520.6912842</ele>
        <time>2007-11-16T10:57:01Z</time>
      </trkpt>
      <trkpt lat="28.5512347" lon="-16.2690663">
        <ele>522.1331787</ele>
        <time>2007-11-16T10:57:12Z</time>
      </trkpt>
      <trkpt lat="28.5512164" lon="-16.2690188">
        <ele>525.4978027</ele>
        <time>2007-11-16T10:57:24Z</time>
      </trkpt>
      <trkpt lat="28.5512763" lon="-16.2689380">
        <ele>527.9010010</ele>
        <time>2007-11-16T10:57:39Z</time>
      </trkpt>
      <trkpt lat="28.5512047" lon="-16.2689111">
        <ele>530.3044434</ele>
        <time>2007-11-16T10:57:53Z</time>
      </trkpt>
      <trkpt lat="28.5512292" lon="-16.2688877">
        <ele>532.2270508</ele>
        <time>2007-11-16T10:58:12Z</time>
      </trkpt>
      <trkpt lat="28.5512280" lon="-16.2688641">
        <ele>532.7077637</ele>
        <time>2007-11-16T10:58:15Z</time>
      </trkpt>
      <trkpt lat="28.5512821" lon="-16.2687623">
        <ele>535.1109619</ele>
        <time>2007-11-16T10:58:30Z</time>
      </trkpt>
      <trkpt lat="28.5513183" lon="-16.2686705">
        <ele>538.9562988</ele>
        <time>2007-11-16T10:58:44Z</time>
      </trkpt>
      <trkpt lat="28.5513339" lon="-16.2686450">
        <ele>539.9176025</ele>
        <time>2007-11-16T10:58:48Z</time>
      </trkpt>
      <trkpt lat="28.5513673" lon="-16.2685302">
        <ele>543.7628174</ele>
        <time>2007-11-16T10:59:03Z</time>
      </trkpt>
      <trkpt lat="28.5513627" lon="-16.2684799">
        <ele>544.2436523</ele>
        <time>2007-11-16T10:59:12Z</time>
      </trkpt>
      <trkpt lat="28.5512676" lon="-16.2684720">
        <ele>547.6081543</ele>
        <time>2007-11-16T10:59:26Z</time>
      </trkpt>
      <trkpt lat="28.5512907" lon="-16.2683825">
        <ele>550.4921875</ele>
        <time>2007-11-16T10:59:40Z</time>
      </trkpt>
      <trkpt lat="28.5513308" lon="-16.2683298">
        <ele>553.3759766</ele>
        <time>2007-11-16T10:59:52Z</time>
      </trkpt>
      <trkpt lat="28.5513673" lon="-16.2682351">
        <ele>556.2600098</ele>
        <time>2007-11-16T11:00:09Z</time>
      </trkpt>
      <trkpt lat="28.5513820" lon="-16.2681863">
        <ele>557.7021484</ele>
        <time>2007-11-16T11:00:23Z</time>
      </trkpt>
      <trkpt lat="28.5514451" lon="-16.2680910">
        <ele>560.5859375</ele>
        <time>2007-11-16T11:00:37Z</time>
      </trkpt>
      <trkpt lat="28.5514551" lon="-16.2680610">
        <ele>561.0666504</ele>
        <time>2007-11-16T11:00:40Z</time>
      </trkpt>
      <trkpt lat="28.5514768" lon="-16.2679563">
        <ele>564.4311523</ele>
        <time>2007-11-16T11:00:51Z</time>
      </trkpt>
      <trkpt lat="28.5515167" lon="-16.2678944">
        <ele>565.3925781</ele>
        <time>2007-11-16T11:00:58Z</time>
      </trkpt>
      <trkpt lat="28.5516456" lon="-16.2677019">
        <ele>568.2763672</ele>
        <time>2007-11-16T11:01:19Z</time>
      </trkpt>
      <trkpt lat="28.5516623" lon="-16.2676718">
        <ele>568.7570801</ele>
        <time>2007-11-16T11:01:22Z</time>
      </trkpt>
      <trkpt lat="28.5516667" lon="-16.2676504">
        <ele>569.2377930</ele>
        <time>2007-11-16T11:01:24Z</time>
      </trkpt>
      <trkpt lat="28.5517202" lon="-16.2675218">
        <ele>569.7185059</ele>
        <time>2007-11-16T11:01:36Z</time>
      </trkpt>
      <trkpt lat="28.5517776" lon="-16.2673572">
        <ele>570.6796875</ele>
        <time>2007-11-16T11:01:49Z</time>
      </trkpt>
      <trkpt lat="28.5517859" lon="-16.2672621">
        <ele>572.6025391</ele>
        <time>2007-11-16T11:02:05Z</time>
      </trkpt>
      <trkpt lat="28.5517850" lon="-16.2672492">
        <ele>572.6025391</ele>
        <time>2007-11-16T11:02:12Z</time>
      </trkpt>
      <trkpt lat="28.5518967" lon="-16.2671653">
        <ele>575.0058594</ele>
        <time>2007-11-16T11:02:30Z</time>
      </trkpt>
      <trkpt lat="28.5519239" lon="-16.2671763">
        <ele>575.9670410</ele>
        <time>2007-11-16T11:02:33Z</time>
      </trkpt>
      <trkpt lat="28.5520139" lon="-16.2672490">
        <ele>577.8896484</ele>
        <time>2007-11-16T11:02:45Z</time>
      </trkpt>
      <trkpt lat="28.5521055" lon="-16.2673279">
        <ele>581.7348633</ele>
        <time>2007-11-16T11:02:58Z</time>
      </trkpt>
      <trkpt lat="28.5522182" lon="-16.2674968">
        <ele>584.6188965</ele>
        <time>2007-11-16T11:03:17Z</time>
      </trkpt>
      <trkpt lat="28.5522707" lon="-16.2675284">
        <ele>586.5415039</ele>
        <time>2007-11-16T11:03:23Z</time>
      </trkpt>
      <trkpt lat="28.5523093" lon="-16.2673963">
        <ele>589.4255371</ele>
        <time>2007-11-16T11:03:38Z</time>
      </trkpt>
      <trkpt lat="28.5523075" lon="-16.2673880">
        <ele>589.4255371</ele>
        <time>2007-11-16T11:03:39Z</time>
      </trkpt>
      <trkpt lat="28.5522896" lon="-16.2672480">
        <ele>591.8288574</ele>
        <time>2007-11-16T11:03:54Z</time>
      </trkpt>
      <trkpt lat="28.5523202" lon="-16.2672041">
        <ele>594.2321777</ele>
        <time>2007-11-16T11:04:01Z</time>
      </trkpt>
      <trkpt lat="28.5523605" lon="-16.2671926">
        <ele>597.1159668</ele>
        <time>2007-11-16T11:04:14Z</time>
      </trkpt>
      <trkpt lat="28.5523899" lon="-16.2672114">
        <ele>598.0773926</ele>
        <time>2007-11-16T11:04:31Z</time>
      </trkpt>
      <trkpt lat="28.5524042" lon="-16.2671839">
        <ele>599.0385742</ele>
        <time>2007-11-16T11:04:55Z</time>
      </trkpt>
      <trkpt lat="28.5524585" lon="-16.2670575">
        <ele>601.4418945</ele>
        <time>2007-11-16T11:05:11Z</time>
      </trkpt>
      <trkpt lat="28.5524491" lon="-16.2669963">
        <ele>604.3261719</ele>
        <time>2007-11-16T11:05:23Z</time>
      </trkpt>
      <trkpt lat="28.5524521" lon="-16.2669273">
        <ele>607.6906738</ele>
        <time>2007-11-16T11:05:35Z</time>
      </trkpt>
      <trkpt lat="28.5524311" lon="-16.2668794">
        <ele>609.1325684</ele>
        <time>2007-11-16T11:05:48Z</time>
      </trkpt>
      <trkpt lat="28.5523988" lon="-16.2668368">
        <ele>612.4970703</ele>
        <time>2007-11-16T11:05:59Z</time>
      </trkpt>
      <trkpt lat="28.5523503" lon="-16.2667617">
        <ele>615.3811035</ele>
        <time>2007-11-16T11:06:14Z</time>
      </trkpt>
      <trkpt lat="28.5523350" lon="-16.2666716">
        <ele>618.2648926</ele>
        <time>2007-11-16T11:06:30Z</time>
      </trkpt>
      <trkpt lat="28.5524124" lon="-16.2666880">
        <ele>620.6684570</ele>
        <time>2007-11-16T11:06:45Z</time>
      </trkpt>
      <trkpt lat="28.5524774" lon="-16.2666971">
        <ele>621.1491699</ele>
        <time>2007-11-16T11:06:52Z</time>
      </trkpt>
      <trkpt lat="28.5527619" lon="-16.2666172">
        <ele>622.5910645</ele>
        <time>2007-11-16T11:07:18Z</time>
      </trkpt>
      <trkpt lat="28.5529930" lon="-16.2664661">
        <ele>624.5136719</ele>
        <time>2007-11-16T11:07:40Z</time>
      </trkpt>
      <trkpt lat="28.5532677" lon="-16.2663100">
        <ele>627.3977051</ele>
        <time>2007-11-16T11:08:05Z</time>
      </trkpt>
      <trkpt lat="28.5532754" lon="-16.2660070">
        <ele>627.8781738</ele>
        <time>2007-11-16T11:08:26Z</time>
      </trkpt>
      <trkpt lat="28.5534422" lon="-16.2657832">
        <ele>628.8395996</ele>
        <time>2007-11-16T11:08:46Z</time>
      </trkpt>
      <trkpt lat="28.5535691" lon="-16.2656967">
        <ele>630.2814941</ele>
        <time>2007-11-16T11:09:07Z</time>
      </trkpt>
      <trkpt lat="28.5536970" lon="-16.2655791">
        <ele>630.7622070</ele>
        <time>2007-11-16T11:09:40Z</time>
      </trkpt>
      <trkpt lat="28.5537292" lon="-16.2655580">
        <ele>630.7622070</ele>
        <time>2007-11-16T11:09:54Z</time>
      </trkpt>
      <trkpt lat="28.5539581" lon="-16.2655129">
        <ele>631.7233887</ele>
        <time>2007-11-16T11:10:12Z</time>
      </trkpt>
      <trkpt lat="28.5541917" lon="-16.2653631">
        <ele>634.6074219</ele>
        <time>2007-11-16T11:10:34Z</time>
      </trkpt>
      <trkpt lat="28.5542798" lon="-16.2650372">
        <ele>635.5686035</ele>
        <time>2007-11-16T11:10:57Z</time>
      </trkpt>
      <trkpt lat="28.5545433" lon="-16.2649180">
        <ele>637.0107422</ele>
        <time>2007-11-16T11:11:19Z</time>
      </trkpt>
      <trkpt lat="28.5549085" lon="-16.2648719">
        <ele>638.9335938</ele>
        <time>2007-11-16T11:11:47Z</time>
      </trkpt>
      <trkpt lat="28.5550804" lon="-16.2648596">
        <ele>639.4140625</ele>
        <time>2007-11-16T11:12:07Z</time>
      </trkpt>
      <trkpt lat="28.5551360" lon="-16.2648337">
        <ele>639.8947754</ele>
        <time>2007-11-16T11:12:22Z</time>
      </trkpt>
      <trkpt lat="28.5551426" lon="-16.2648437">
        <ele>640.3754883</ele>
        <time>2007-11-16T11:12:27Z</time>
      </trkpt>
      <trkpt lat="28.5552873" lon="-16.2648384">
        <ele>640.3754883</ele>
        <time>2007-11-16T11:12:48Z</time>
      </trkpt>
      <trkpt lat="28.5552947" lon="-16.2648430">
        <ele>640.3754883</ele>
        <time>2007-11-16T11:12:50Z</time>
      </trkpt>
      <trkpt lat="28.5554058" lon="-16.2649275">
        <ele>640.8559570</ele>
        <time>2007-11-16T11:13:04Z</time>
      </trkpt>
      <trkpt lat="28.5556567" lon="-16.2649694">
        <ele>641.8173828</ele>
        <time>2007-11-16T11:13:24Z</time>
      </trkpt>
      <trkpt lat="28.5557230" lon="-16.2649695">
        <ele>642.2980957</ele>
        <time>2007-11-16T11:13:40Z</time>
      </trkpt>
      <trkpt lat="28.5558292" lon="-16.2649596">
        <ele>642.7788086</ele>
        <time>2007-11-16T11:13:57Z</time>
      </trkpt>
      <trkpt lat="28.5560101" lon="-16.2649516">
        <ele>643.2592773</ele>
        <time>2007-11-16T11:14:12Z</time>
      </trkpt>
      <trkpt lat="28.5562473" lon="-16.2649599">
        <ele>642.2980957</ele>
        <time>2007-11-16T11:14:34Z</time>
      </trkpt>
      <trkpt lat="28.5563083" lon="-16.2649348">
        <ele>642.2980957</ele>
        <time>2007-11-16T11:14:47Z</time>
      </trkpt>
      <trkpt lat="28.5565272" lon="-16.2647932">
        <ele>638.4528809</ele>
        <time>2007-11-16T11:15:09Z</time>
      </trkpt>
      <trkpt lat="28.5566361" lon="-16.2647144">
        <ele>637.0107422</ele>
        <time>2007-11-16T11:15:29Z</time>
      </trkpt>
      <trkpt lat="28.5567409" lon="-16.2646504">
        <ele>635.0881348</ele>
        <time>2007-11-16T11:15:42Z</time>
      </trkpt>
      <trkpt lat="28.5569833" lon="-16.2645394">
        <ele>632.2041016</ele>
        <time>2007-11-16T11:16:04Z</time>
      </trkpt>
      <trkpt lat="28.5569850" lon="-16.2645364">
        <ele>632.2041016</ele>
        <time>2007-11-16T11:16:12Z</time>
      </trkpt>
      <trkpt lat="28.5570093" lon="-16.2644934">
        <ele>632.2041016</ele>
        <time>2007-11-16T11:16:16Z</time>
      </trkpt>
      <trkpt lat="28.5571318" lon="-16.2644411">
        <ele>632.6848145</ele>
        <time>2007-11-16T11:16:36Z</time>
      </trkpt>
      <trkpt lat="28.5571504" lon="-16.2644384">
        <ele>633.1652832</ele>
        <time>2007-11-16T11:16:43Z</time>
      </trkpt>
      <trkpt lat="28.5572813" lon="-16.2644171">
        <ele>635.0881348</ele>
        <time>2007-11-16T11:16:59Z</time>
      </trkpt>
      <trkpt lat="28.5574472" lon="-16.2644096">
        <ele>639.4140625</ele>
        <time>2007-11-16T11:17:15Z</time>
      </trkpt>
      <trkpt lat="28.5576919" lon="-16.2643919">
        <ele>640.3754883</ele>
        <time>2007-11-16T11:17:35Z</time>
      </trkpt>
      <trkpt lat="28.5577251" lon="-16.2644058">
        <ele>641.8173828</ele>
        <time>2007-11-16T11:17:38Z</time>
      </trkpt>
      <trkpt lat="28.5578347" lon="-16.2643618">
        <ele>643.7399902</ele>
        <time>2007-11-16T11:17:53Z</time>
      </trkpt>
      <trkpt lat="28.5579665" lon="-16.2642421">
        <ele>643.2592773</ele>
        <time>2007-11-16T11:18:08Z</time>
      </trkpt>
      <trkpt lat="28.5580907" lon="-16.2642954">
        <ele>642.7788086</ele>
        <time>2007-11-16T11:18:24Z</time>
      </trkpt>
      <trkpt lat="28.5582041" lon="-16.2643064">
        <ele>643.2592773</ele>
        <time>2007-11-16T11:18:38Z</time>
      </trkpt>
      <trkpt lat="28.5584130" lon="-16.2642022">
        <ele>643.7399902</ele>
        <time>2007-11-16T11:18:56Z</time>
      </trkpt>
      <trkpt lat="28.5585948" lon="-16.2642157">
        <ele>646.6240234</ele>
        <time>2007-11-16T11:19:14Z</time>
      </trkpt>
      <trkpt lat="28.5587300" lon="-16.2642094">
        <ele>647.5852051</ele>
        <time>2007-11-16T11:19:38Z</time>
      </trkpt>
      <trkpt lat="28.5589166" lon="-16.2641430">
        <ele>649.9885254</ele>
        <time>2007-11-16T11:19:56Z</time>
      </trkpt>
      <trkpt lat="28.5591207" lon="-16.2639401">
        <ele>650.9497070</ele>
        <time>2007-11-16T11:20:18Z</time>
      </trkpt>
      <trkpt lat="28.5593237" lon="-16.2637033">
        <ele>649.9885254</ele>
        <time>2007-11-16T11:20:41Z</time>
      </trkpt>
      <trkpt lat="28.5593520" lon="-16.2636458">
        <ele>649.9885254</ele>
        <time>2007-11-16T11:20:46Z</time>
      </trkpt>
      <trkpt lat="28.5593636" lon="-16.2635963">
        <ele>649.5078125</ele>
        <time>2007-11-16T11:21:01Z</time>
      </trkpt>
      <trkpt lat="28.5593692" lon="-16.2635675">
        <ele>649.5078125</ele>
        <time>2007-11-16T11:21:17Z</time>
      </trkpt>
      <trkpt lat="28.5594169" lon="-16.2634302">
        <ele>645.6625977</ele>
        <time>2007-11-16T11:21:28Z</time>
      </trkpt>
      <trkpt lat="28.5594226" lon="-16.2634214">
        <ele>645.1818848</ele>
        <time>2007-11-16T11:21:29Z</time>
      </trkpt>
      <trkpt lat="28.5594507" lon="-16.2633681">
        <ele>642.7788086</ele>
        <time>2007-11-16T11:21:35Z</time>
      </trkpt>
      <trkpt lat="28.5595003" lon="-16.2633247">
        <ele>640.8559570</ele>
        <time>2007-11-16T11:21:49Z</time>
      </trkpt>
      <trkpt lat="28.5594900" lon="-16.2634504">
        <ele>637.4914551</ele>
        <time>2007-11-16T11:22:00Z</time>
      </trkpt>
      <trkpt lat="28.5595133" lon="-16.2635048">
        <ele>633.6459961</ele>
        <time>2007-11-16T11:22:15Z</time>
      </trkpt>
      <trkpt lat="28.5595178" lon="-16.2634864">
        <ele>633.1652832</ele>
        <time>2007-11-16T11:22:17Z</time>
      </trkpt>
      <trkpt lat="28.5595322" lon="-16.2634921">
        <ele>631.7233887</ele>
        <time>2007-11-16T11:22:23Z</time>
      </trkpt>
      <trkpt lat="28.5595760" lon="-16.2636096">
        <ele>628.8395996</ele>
        <time>2007-11-16T11:22:33Z</time>
      </trkpt>
      <trkpt lat="28.5596293" lon="-16.2636631">
        <ele>626.9169922</ele>
        <time>2007-11-16T11:22:39Z</time>
      </trkpt>
      <trkpt lat="28.5597417" lon="-16.2638201">
        <ele>623.5524902</ele>
        <time>2007-11-16T11:22:54Z</time>
      </trkpt>
      <trkpt lat="28.5597868" lon="-16.2638547">
        <ele>620.1877441</ele>
        <time>2007-11-16T11:23:02Z</time>
      </trkpt>
      <trkpt lat="28.5598681" lon="-16.2639096">
        <ele>617.3037109</ele>
        <time>2007-11-16T11:23:14Z</time>
      </trkpt>
      <trkpt lat="28.5599043" lon="-16.2639220">
        <ele>616.3422852</ele>
        <time>2007-11-16T11:23:17Z</time>
      </trkpt>
      <trkpt lat="28.5600036" lon="-16.2639874">
        <ele>612.9777832</ele>
        <time>2007-11-16T11:23:33Z</time>
      </trkpt>
      <trkpt lat="28.5600813" lon="-16.2640246">
        <ele>609.6132813</ele>
        <time>2007-11-16T11:23:42Z</time>
      </trkpt>
      <trkpt lat="28.5600901" lon="-16.2640303">
        <ele>609.6132813</ele>
        <time>2007-11-16T11:23:43Z</time>
      </trkpt>
      <trkpt lat="28.5602670" lon="-16.2640821">
        <ele>606.2485352</ele>
        <time>2007-11-16T11:23:57Z</time>
      </trkpt>
      <trkpt lat="28.5603617" lon="-16.2640639">
        <ele>602.8837891</ele>
        <time>2007-11-16T11:24:06Z</time>
      </trkpt>
      <trkpt lat="28.5603703" lon="-16.2640623">
        <ele>602.8837891</ele>
        <time>2007-11-16T11:24:07Z</time>
      </trkpt>
      <trkpt lat="28.5604100" lon="-16.2640609">
        <ele>600.9611816</ele>
        <time>2007-11-16T11:24:11Z</time>
      </trkpt>
      <trkpt lat="28.5605866" lon="-16.2641482">
        <ele>597.5966797</ele>
        <time>2007-11-16T11:24:28Z</time>
      </trkpt>
      <trkpt lat="28.5607269" lon="-16.2642894">
        <ele>594.2321777</ele>
        <time>2007-11-16T11:24:43Z</time>
      </trkpt>
      <trkpt lat="28.5607870" lon="-16.2643090">
        <ele>596.1547852</ele>
        <time>2007-11-16T11:24:50Z</time>
      </trkpt>
      <trkpt lat="28.5607933" lon="-16.2643192">
        <ele>596.1547852</ele>
        <time>2007-11-16T11:24:57Z</time>
      </trkpt>
      <trkpt lat="28.5608533" lon="-16.2643986">
        <ele>597.5966797</ele>
        <time>2007-11-16T11:25:13Z</time>
      </trkpt>
      <trkpt lat="28.5609068" lon="-16.2644155">
        <ele>596.1547852</ele>
        <time>2007-11-16T11:25:32Z</time>
      </trkpt>
      <trkpt lat="28.5609724" lon="-16.2644691">
        <ele>596.1547852</ele>
        <time>2007-11-16T11:25:44Z</time>
      </trkpt>
      <trkpt lat="28.5609865" lon="-16.2644763">
        <ele>597.1159668</ele>
        <time>2007-11-16T11:25:46Z</time>
      </trkpt>
      <trkpt lat="28.5611275" lon="-16.2644493">
        <ele>596.6354980</ele>
        <time>2007-11-16T11:25:59Z</time>
      </trkpt>
      <trkpt lat="28.5611470" lon="-16.2644401">
        <ele>597.1159668</ele>
        <time>2007-11-16T11:26:01Z</time>
      </trkpt>
      <trkpt lat="28.5613193" lon="-16.2643235">
        <ele>596.1547852</ele>
        <time>2007-11-16T11:26:18Z</time>
      </trkpt>
      <trkpt lat="28.5613943" lon="-16.2642886">
        <ele>596.6354980</ele>
        <time>2007-11-16T11:26:25Z</time>
      </trkpt>
      <trkpt lat="28.5614682" lon="-16.2642691">
        <ele>600.4807129</ele>
        <time>2007-11-16T11:26:35Z</time>
      </trkpt>
      <trkpt lat="28.5615651" lon="-16.2642338">
        <ele>601.4418945</ele>
        <time>2007-11-16T11:26:51Z</time>
      </trkpt>
      <trkpt lat="28.5616859" lon="-16.2641566">
        <ele>603.3645020</ele>
        <time>2007-11-16T11:27:07Z</time>
      </trkpt>
      <trkpt lat="28.5617104" lon="-16.2641774">
        <ele>604.8066406</ele>
        <time>2007-11-16T11:27:22Z</time>
      </trkpt>
      <trkpt lat="28.5617209" lon="-16.2641924">
        <ele>604.8066406</ele>
        <time>2007-11-16T11:27:29Z</time>
      </trkpt>
      <trkpt lat="28.5617468" lon="-16.2642440">
        <ele>604.3261719</ele>
        <time>2007-11-16T11:27:33Z</time>
      </trkpt>
      <trkpt lat="28.5618345" lon="-16.2643947">
        <ele>604.3261719</ele>
        <time>2007-11-16T11:27:45Z</time>
      </trkpt>
      <trkpt lat="28.5618630" lon="-16.2644637">
        <ele>603.8452148</ele>
        <time>2007-11-16T11:27:56Z</time>
      </trkpt>
      <trkpt lat="28.5619275" lon="-16.2645831">
        <ele>600.9611816</ele>
        <time>2007-11-16T11:28:08Z</time>
      </trkpt>
      <trkpt lat="28.5619520" lon="-16.2646098">
        <ele>599.0385742</ele>
        <time>2007-11-16T11:28:13Z</time>
      </trkpt>
      <trkpt lat="28.5619957" lon="-16.2646818">
        <ele>596.6354980</ele>
        <time>2007-11-16T11:28:27Z</time>
      </trkpt>
      <trkpt lat="28.5620107" lon="-16.2647055">
        <ele>595.6740723</ele>
        <time>2007-11-16T11:28:41Z</time>
      </trkpt>
      <trkpt lat="28.5620441" lon="-16.2647207">
        <ele>593.7514648</ele>
        <time>2007-11-16T11:28:44Z</time>
      </trkpt>
      <trkpt lat="28.5620784" lon="-16.2647449">
        <ele>592.3095703</ele>
        <time>2007-11-16T11:28:47Z</time>
      </trkpt>
      <trkpt lat="28.5623151" lon="-16.2648612">
        <ele>591.8288574</ele>
        <time>2007-11-16T11:29:06Z</time>
      </trkpt>
      <trkpt lat="28.5623262" lon="-16.2648782">
        <ele>593.7514648</ele>
        <time>2007-11-16T11:29:08Z</time>
      </trkpt>
      <trkpt lat="28.5623389" lon="-16.2649034">
        <ele>595.1933594</ele>
        <time>2007-11-16T11:29:11Z</time>
      </trkpt>
      <trkpt lat="28.5624545" lon="-16.2650103">
        <ele>598.0773926</ele>
        <time>2007-11-16T11:29:29Z</time>
      </trkpt>
      <trkpt lat="28.5625358" lon="-16.2651073">
        <ele>601.4418945</ele>
        <time>2007-11-16T11:29:43Z</time>
      </trkpt>
      <trkpt lat="28.5625522" lon="-16.2651315">
        <ele>600.9611816</ele>
        <time>2007-11-16T11:29:46Z</time>
      </trkpt>
      <trkpt lat="28.5626063" lon="-16.2652718">
        <ele>604.3261719</ele>
        <time>2007-11-16T11:30:02Z</time>
      </trkpt>
      <trkpt lat="28.5626289" lon="-16.2653639">
        <ele>606.7292480</ele>
        <time>2007-11-16T11:30:12Z</time>
      </trkpt>
      <trkpt lat="28.5627367" lon="-16.2654848">
        <ele>607.2099609</ele>
        <time>2007-11-16T11:30:29Z</time>
      </trkpt>
      <trkpt lat="28.5627731" lon="-16.2655210">
        <ele>606.7292480</ele>
        <time>2007-11-16T11:30:46Z</time>
      </trkpt>
      <trkpt lat="28.5628233" lon="-16.2656147">
        <ele>608.1713867</ele>
        <time>2007-11-16T11:31:01Z</time>
      </trkpt>
      <trkpt lat="28.5628555" lon="-16.2656199">
        <ele>607.6906738</ele>
        <time>2007-11-16T11:31:18Z</time>
      </trkpt>
      <trkpt lat="28.5630285" lon="-16.2656837">
        <ele>604.8066406</ele>
        <time>2007-11-16T11:31:35Z</time>
      </trkpt>
      <trkpt lat="28.5632190" lon="-16.2656773">
        <ele>602.4030762</ele>
        <time>2007-11-16T11:31:50Z</time>
      </trkpt>
      <trkpt lat="28.5633999" lon="-16.2657796">
        <ele>602.4030762</ele>
        <time>2007-11-16T11:32:08Z</time>
      </trkpt>
      <trkpt lat="28.5635153" lon="-16.2659546">
        <ele>600.0000000</ele>
        <time>2007-11-16T11:32:25Z</time>
      </trkpt>
      <trkpt lat="28.5635506" lon="-16.2659840">
        <ele>600.0000000</ele>
        <time>2007-11-16T11:32:48Z</time>
      </trkpt>
      <trkpt lat="28.5636126" lon="-16.2660542">
        <ele>599.0385742</ele>
        <time>2007-11-16T11:33:02Z</time>
      </trkpt>
      <trkpt lat="28.5637158" lon="-16.2661660">
        <ele>602.4030762</ele>
        <time>2007-11-16T11:33:19Z</time>
      </trkpt>
      <trkpt lat="28.5637571" lon="-16.2661903">
        <ele>603.8452148</ele>
        <time>2007-11-16T11:33:26Z</time>
      </trkpt>
      <trkpt lat="28.5637858" lon="-16.2662506">
        <ele>607.2099609</ele>
        <time>2007-11-16T11:33:38Z</time>
      </trkpt>
      <trkpt lat="28.5638303" lon="-16.2662835">
        <ele>609.1325684</ele>
        <time>2007-11-16T11:33:51Z</time>
      </trkpt>
      <trkpt lat="28.5638649" lon="-16.2663718">
        <ele>611.5358887</ele>
        <time>2007-11-16T11:34:05Z</time>
      </trkpt>
      <trkpt lat="28.5639076" lon="-16.2664830">
        <ele>613.4584961</ele>
        <time>2007-11-16T11:34:19Z</time>
      </trkpt>
      <trkpt lat="28.5639562" lon="-16.2666439">
        <ele>614.9003906</ele>
        <time>2007-11-16T11:34:34Z</time>
      </trkpt>
      <trkpt lat="28.5640075" lon="-16.2667063">
        <ele>617.3037109</ele>
        <time>2007-11-16T11:34:49Z</time>
      </trkpt>
      <trkpt lat="28.5640587" lon="-16.2667251">
        <ele>619.7070313</ele>
        <time>2007-11-16T11:35:03Z</time>
      </trkpt>
      <trkpt lat="28.5641027" lon="-16.2667820">
        <ele>622.1103516</ele>
        <time>2007-11-16T11:35:17Z</time>
      </trkpt>
      <trkpt lat="28.5641173" lon="-16.2668047">
        <ele>624.0329590</ele>
        <time>2007-11-16T11:35:34Z</time>
      </trkpt>
      <trkpt lat="28.5641261" lon="-16.2668120">
        <ele>623.5524902</ele>
        <time>2007-11-16T11:36:10Z</time>
      </trkpt>
      <trkpt lat="28.5641426" lon="-16.2667660">
        <ele>623.5524902</ele>
        <time>2007-11-16T11:36:25Z</time>
      </trkpt>
      <trkpt lat="28.5641409" lon="-16.2666752">
        <ele>626.4362793</ele>
        <time>2007-11-16T11:36:35Z</time>
      </trkpt>
      <trkpt lat="28.5641993" lon="-16.2666127">
        <ele>629.8007813</ele>
        <time>2007-11-16T11:36:49Z</time>
      </trkpt>
      <trkpt lat="28.5641981" lon="-16.2665854">
        <ele>630.2814941</ele>
        <time>2007-11-16T11:37:02Z</time>
      </trkpt>
      <trkpt lat="28.5642277" lon="-16.2665664">
        <ele>629.8007813</ele>
        <time>2007-11-16T11:37:14Z</time>
      </trkpt>
      <trkpt lat="28.5643587" lon="-16.2664932">
        <ele>627.3977051</ele>
        <time>2007-11-16T11:37:30Z</time>
      </trkpt>
      <trkpt lat="28.5644652" lon="-16.2664145">
        <ele>624.9943848</ele>
        <time>2007-11-16T11:37:46Z</time>
      </trkpt>
      <trkpt lat="28.5644784" lon="-16.2664033">
        <ele>624.5136719</ele>
        <time>2007-11-16T11:37:47Z</time>
      </trkpt>
      <trkpt lat="28.5645829" lon="-16.2663471">
        <ele>624.5136719</ele>
        <time>2007-11-16T11:38:00Z</time>
      </trkpt>
      <trkpt lat="28.5646644" lon="-16.2662803">
        <ele>625.9555664</ele>
        <time>2007-11-16T11:38:15Z</time>
      </trkpt>
      <trkpt lat="28.5647752" lon="-16.2662083">
        <ele>627.3977051</ele>
        <time>2007-11-16T11:38:29Z</time>
      </trkpt>
      <trkpt lat="28.5648493" lon="-16.2661555">
        <ele>626.4362793</ele>
        <time>2007-11-16T11:38:45Z</time>
      </trkpt>
      <trkpt lat="28.5648582" lon="-16.2661420">
        <ele>625.9555664</ele>
        <time>2007-11-16T11:39:01Z</time>
      </trkpt>
      <trkpt lat="28.5649358" lon="-16.2661715">
        <ele>623.5524902</ele>
        <time>2007-11-16T11:39:25Z</time>
      </trkpt>
      <trkpt lat="28.5650616" lon="-16.2661327">
        <ele>623.5524902</ele>
        <time>2007-11-16T11:39:42Z</time>
      </trkpt>
      <trkpt lat="28.5650995" lon="-16.2661524">
        <ele>624.9943848</ele>
        <time>2007-11-16T11:39:54Z</time>
      </trkpt>
      <trkpt lat="28.5651651" lon="-16.2661390">
        <ele>625.9555664</ele>
        <time>2007-11-16T11:40:02Z</time>
      </trkpt>
      <trkpt lat="28.5652238" lon="-16.2661112">
        <ele>627.8781738</ele>
        <time>2007-11-16T11:40:15Z</time>
      </trkpt>
      <trkpt lat="28.5653024" lon="-16.2661064">
        <ele>630.2814941</ele>
        <time>2007-11-16T11:40:27Z</time>
      </trkpt>
      <trkpt lat="28.5653078" lon="-16.2661099">
        <ele>629.8007813</ele>
        <time>2007-11-16T11:40:28Z</time>
      </trkpt>
      <trkpt lat="28.5653481" lon="-16.2661039">
        <ele>632.6848145</ele>
        <time>2007-11-16T11:40:37Z</time>
      </trkpt>
      <trkpt lat="28.5654574" lon="-16.2660858">
        <ele>635.0881348</ele>
        <time>2007-11-16T11:40:51Z</time>
      </trkpt>
      <trkpt lat="28.5654824" lon="-16.2660887">
        <ele>635.5686035</ele>
        <time>2007-11-16T11:40:54Z</time>
      </trkpt>
      <trkpt lat="28.5655460" lon="-16.2660728">
        <ele>636.0495605</ele>
        <time>2007-11-16T11:41:10Z</time>
      </trkpt>
      <trkpt lat="28.5656081" lon="-16.2660432">
        <ele>637.4914551</ele>
        <time>2007-11-16T11:41:22Z</time>
      </trkpt>
      <trkpt lat="28.5656781" lon="-16.2660128">
        <ele>638.4528809</ele>
        <time>2007-11-16T11:41:32Z</time>
      </trkpt>
      <trkpt lat="28.5657745" lon="-16.2660179">
        <ele>639.4140625</ele>
        <time>2007-11-16T11:41:48Z</time>
      </trkpt>
      <trkpt lat="28.5658496" lon="-16.2660179">
        <ele>640.3754883</ele>
        <time>2007-11-16T11:42:01Z</time>
      </trkpt>
      <trkpt lat="28.5658962" lon="-16.2660123">
        <ele>642.7788086</ele>
        <time>2007-11-16T11:42:12Z</time>
      </trkpt>
      <trkpt lat="28.5659190" lon="-16.2660286">
        <ele>644.2207031</ele>
        <time>2007-11-16T11:42:29Z</time>
      </trkpt>
      <trkpt lat="28.5659376" lon="-16.2660358">
        <ele>643.7399902</ele>
        <time>2007-11-16T11:42:42Z</time>
      </trkpt>
      <trkpt lat="28.5659444" lon="-16.2660491">
        <ele>644.2207031</ele>
        <time>2007-11-16T11:42:56Z</time>
      </trkpt>
      <trkpt lat="28.5659413" lon="-16.2660288">
        <ele>644.2207031</ele>
        <time>2007-11-16T11:43:14Z</time>
      </trkpt>
      <trkpt lat="28.5659327" lon="-16.2660159">
        <ele>645.1818848</ele>
        <time>2007-11-16T11:43:33Z</time>
      </trkpt>
      <trkpt lat="28.5659257" lon="-16.2660256">
        <ele>645.6625977</ele>
        <time>2007-11-16T11:44:06Z</time>
      </trkpt>
      <trkpt lat="28.5659278" lon="-16.2660277">
        <ele>644.7011719</ele>
        <time>2007-11-16T11:44:12Z</time>
      </trkpt>
      <trkpt lat="28.5659008" lon="-16.2660204">
        <ele>643.2592773</ele>
        <time>2007-11-16T11:44:27Z</time>
      </trkpt>
      <trkpt lat="28.5659213" lon="-16.2660658">
        <ele>640.8559570</ele>
        <time>2007-11-16T11:44:39Z</time>
      </trkpt>
      <trkpt lat="28.5659644" lon="-16.2661318">
        <ele>639.8947754</ele>
        <time>2007-11-16T11:44:53Z</time>
      </trkpt>
      <trkpt lat="28.5659851" lon="-16.2661594">
        <ele>639.8947754</ele>
        <time>2007-11-16T11:44:57Z</time>
      </trkpt>
      <trkpt lat="28.5660884" lon="-16.2662554">
        <ele>640.8559570</ele>
        <time>2007-11-16T11:45:13Z</time>
      </trkpt>
      <trkpt lat="28.5660895" lon="-16.2662622">
        <ele>640.8559570</ele>
        <time>2007-11-16T11:45:14Z</time>
      </trkpt>
      <trkpt lat="28.5661120" lon="-16.2663536">
        <ele>641.8173828</ele>
        <time>2007-11-16T11:45:30Z</time>
      </trkpt>
      <trkpt lat="28.5661173" lon="-16.2663987">
        <ele>641.8173828</ele>
        <time>2007-11-16T11:45:44Z</time>
      </trkpt>
      <trkpt lat="28.5661627" lon="-16.2664711">
        <ele>640.3754883</ele>
        <time>2007-11-16T11:45:56Z</time>
      </trkpt>
      <trkpt lat="28.5662221" lon="-16.2664974">
        <ele>642.2980957</ele>
        <time>2007-11-16T11:46:10Z</time>
      </trkpt>
      <trkpt lat="28.5662272" lon="-16.2665077">
        <ele>641.8173828</ele>
        <time>2007-11-16T11:46:13Z</time>
      </trkpt>
      <trkpt lat="28.5662478" lon="-16.2665486">
        <ele>640.8559570</ele>
        <time>2007-11-16T11:46:30Z</time>
      </trkpt>
      <trkpt lat="28.5662837" lon="-16.2665882">
        <ele>639.8947754</ele>
        <time>2007-11-16T11:46:41Z</time>
      </trkpt>
      <trkpt lat="28.5663173" lon="-16.2665872">
        <ele>640.3754883</ele>
        <time>2007-11-16T11:47:04Z</time>
      </trkpt>
      <trkpt lat="28.5663493" lon="-16.2665473">
        <ele>639.8947754</ele>
        <time>2007-11-16T11:47:30Z</time>
      </trkpt>
      <trkpt lat="28.5663733" lon="-16.2665219">
        <ele>640.3754883</ele>
        <time>2007-11-16T11:47:49Z</time>
      </trkpt>
      <trkpt lat="28.5663991" lon="-16.2664627">
        <ele>639.8947754</ele>
        <time>2007-11-16T11:48:01Z</time>
      </trkpt>
      <trkpt lat="28.5663831" lon="-16.2664902">
        <ele>639.4140625</ele>
        <time>2007-11-16T11:48:30Z</time>
      </trkpt>
      <trkpt lat="28.5663555" lon="-16.2665346">
        <ele>639.4140625</ele>
        <time>2007-11-16T11:48:45Z</time>
      </trkpt>
      <trkpt lat="28.5662956" lon="-16.2665820">
        <ele>639.8947754</ele>
        <time>2007-11-16T11:48:58Z</time>
      </trkpt>
      <trkpt lat="28.5662584" lon="-16.2666031">
        <ele>638.4528809</ele>
        <time>2007-11-16T11:49:10Z</time>
      </trkpt>
      <trkpt lat="28.5661712" lon="-16.2665787">
        <ele>637.4914551</ele>
        <time>2007-11-16T11:49:25Z</time>
      </trkpt>
      <trkpt lat="28.5661485" lon="-16.2665258">
        <ele>638.4528809</ele>
        <time>2007-11-16T11:49:38Z</time>
      </trkpt>
      <trkpt lat="28.5661516" lon="-16.2664587">
        <ele>639.8947754</ele>
        <time>2007-11-16T11:49:52Z</time>
      </trkpt>
      <trkpt lat="28.5661377" lon="-16.2663665">
        <ele>640.8559570</ele>
        <time>2007-11-16T11:50:06Z</time>
      </trkpt>
      <trkpt lat="28.5661308" lon="-16.2663306">
        <ele>642.2980957</ele>
        <time>2007-11-16T11:50:22Z</time>
      </trkpt>
      <trkpt lat="28.5661303" lon="-16.2663277">
        <ele>641.8173828</ele>
        <time>2007-11-16T11:50:23Z</time>
      </trkpt>
      <trkpt lat="28.5661127" lon="-16.2662938">
        <ele>640.8559570</ele>
        <time>2007-11-16T11:50:26Z</time>
      </trkpt>
      <trkpt lat="28.5660443" lon="-16.2661883">
        <ele>639.8947754</ele>
        <time>2007-11-16T11:50:41Z</time>
      </trkpt>
      <trkpt lat="28.5659579" lon="-16.2661142">
        <ele>641.3366699</ele>
        <time>2007-11-16T11:50:57Z</time>
      </trkpt>
      <trkpt lat="28.5659071" lon="-16.2660515">
        <ele>642.2980957</ele>
        <time>2007-11-16T11:51:11Z</time>
      </trkpt>
      <trkpt lat="28.5658744" lon="-16.2660320">
        <ele>641.3366699</ele>
        <time>2007-11-16T11:51:25Z</time>
      </trkpt>
      <trkpt lat="28.5658659" lon="-16.2660132">
        <ele>640.8559570</ele>
        <time>2007-11-16T11:51:42Z</time>
      </trkpt>
      <trkpt lat="28.5658551" lon="-16.2660026">
        <ele>640.3754883</ele>
        <time>2007-11-16T11:51:49Z</time>
      </trkpt>
      <trkpt lat="28.5657953" lon="-16.2660135">
        <ele>639.4140625</ele>
        <time>2007-11-16T11:52:02Z</time>
      </trkpt>
      <trkpt lat="28.5657088" lon="-16.2660111">
        <ele>638.4528809</ele>
        <time>2007-11-16T11:52:15Z</time>
      </trkpt>
      <trkpt lat="28.5656154" lon="-16.2660496">
        <ele>637.9721680</ele>
        <time>2007-11-16T11:52:30Z</time>
      </trkpt>
      <trkpt lat="28.5655853" lon="-16.2660539">
        <ele>636.5302734</ele>
        <time>2007-11-16T11:52:37Z</time>
      </trkpt>
      <trkpt lat="28.5654745" lon="-16.2660857">
        <ele>635.0881348</ele>
        <time>2007-11-16T11:52:53Z</time>
      </trkpt>
      <trkpt lat="28.5653818" lon="-16.2661013">
        <ele>633.1652832</ele>
        <time>2007-11-16T11:53:08Z</time>
      </trkpt>
      <trkpt lat="28.5653552" lon="-16.2661080">
        <ele>632.2041016</ele>
        <time>2007-11-16T11:53:20Z</time>
      </trkpt>
      <trkpt lat="28.5653011" lon="-16.2661090">
        <ele>628.8395996</ele>
        <time>2007-11-16T11:53:40Z</time>
      </trkpt>
      <trkpt lat="28.5652462" lon="-16.2661204">
        <ele>627.8781738</ele>
        <time>2007-11-16T11:53:53Z</time>
      </trkpt>
      <trkpt lat="28.5651796" lon="-16.2661423">
        <ele>625.4748535</ele>
        <time>2007-11-16T11:54:06Z</time>
      </trkpt>
      <trkpt lat="28.5650917" lon="-16.2661474">
        <ele>624.0329590</ele>
        <time>2007-11-16T11:54:23Z</time>
      </trkpt>
      <trkpt lat="28.5650718" lon="-16.2661164">
        <ele>622.1103516</ele>
        <time>2007-11-16T11:54:32Z</time>
      </trkpt>
      <trkpt lat="28.5650326" lon="-16.2661902">
        <ele>621.1491699</ele>
        <time>2007-11-16T11:54:47Z</time>
      </trkpt>
      <trkpt lat="28.5650306" lon="-16.2662335">
        <ele>618.7456055</ele>
        <time>2007-11-16T11:54:59Z</time>
      </trkpt>
      <trkpt lat="28.5651046" lon="-16.2662423">
        <ele>616.8229980</ele>
        <time>2007-11-16T11:55:11Z</time>
      </trkpt>
      <trkpt lat="28.5652062" lon="-16.2663194">
        <ele>612.9777832</ele>
        <time>2007-11-16T11:55:28Z</time>
      </trkpt>
      <trkpt lat="28.5652484" lon="-16.2663510">
        <ele>612.0166016</ele>
        <time>2007-11-16T11:55:37Z</time>
      </trkpt>
      <trkpt lat="28.5653475" lon="-16.2663080">
        <ele>610.5744629</ele>
        <time>2007-11-16T11:55:53Z</time>
      </trkpt>
      <trkpt lat="28.5653512" lon="-16.2663658">
        <ele>610.0937500</ele>
        <time>2007-11-16T11:56:07Z</time>
      </trkpt>
      <trkpt lat="28.5653671" lon="-16.2664116">
        <ele>606.7292480</ele>
        <time>2007-11-16T11:56:17Z</time>
      </trkpt>
      <trkpt lat="28.5654184" lon="-16.2664407">
        <ele>605.7680664</ele>
        <time>2007-11-16T11:56:27Z</time>
      </trkpt>
      <trkpt lat="28.5654983" lon="-16.2665053">
        <ele>602.4030762</ele>
        <time>2007-11-16T11:56:42Z</time>
      </trkpt>
      <trkpt lat="28.5655942" lon="-16.2665597">
        <ele>599.0385742</ele>
        <time>2007-11-16T11:56:56Z</time>
      </trkpt>
      <trkpt lat="28.5656046" lon="-16.2665628">
        <ele>599.5192871</ele>
        <time>2007-11-16T11:56:57Z</time>
      </trkpt>
      <trkpt lat="28.5656143" lon="-16.2665666">
        <ele>598.5578613</ele>
        <time>2007-11-16T11:56:58Z</time>
      </trkpt>
      <trkpt lat="28.5656290" lon="-16.2665845">
        <ele>598.0773926</ele>
        <time>2007-11-16T11:57:00Z</time>
      </trkpt>
      <trkpt lat="28.5656724" lon="-16.2666507">
        <ele>596.6354980</ele>
        <time>2007-11-16T11:57:07Z</time>
      </trkpt>
      <trkpt lat="28.5657392" lon="-16.2668876">
        <ele>595.1933594</ele>
        <time>2007-11-16T11:57:26Z</time>
      </trkpt>
      <trkpt lat="28.5658552" lon="-16.2670720">
        <ele>592.3095703</ele>
        <time>2007-11-16T11:57:45Z</time>
      </trkpt>
      <trkpt lat="28.5659753" lon="-16.2671029">
        <ele>590.3869629</ele>
        <time>2007-11-16T11:57:59Z</time>
      </trkpt>
      <trkpt lat="28.5660112" lon="-16.2671058">
        <ele>587.9833984</ele>
        <time>2007-11-16T11:58:06Z</time>
      </trkpt>
      <trkpt lat="28.5660982" lon="-16.2671720">
        <ele>587.9833984</ele>
        <time>2007-11-16T11:58:16Z</time>
      </trkpt>
      <trkpt lat="28.5661853" lon="-16.2673455">
        <ele>587.0219727</ele>
        <time>2007-11-16T11:58:32Z</time>
      </trkpt>
      <trkpt lat="28.5662664" lon="-16.2675449">
        <ele>584.1381836</ele>
        <time>2007-11-16T11:58:49Z</time>
      </trkpt>
      <trkpt lat="28.5663199" lon="-16.2676004">
        <ele>582.6962891</ele>
        <time>2007-11-16T11:58:57Z</time>
      </trkpt>
      <trkpt lat="28.5664555" lon="-16.2675455">
        <ele>581.2543945</ele>
        <time>2007-11-16T11:59:11Z</time>
      </trkpt>
      <trkpt lat="28.5665725" lon="-16.2673227">
        <ele>580.7736816</ele>
        <time>2007-11-16T11:59:31Z</time>
      </trkpt>
      <trkpt lat="28.5666209" lon="-16.2671284">
        <ele>579.8122559</ele>
        <time>2007-11-16T11:59:49Z</time>
      </trkpt>
      <trkpt lat="28.5666732" lon="-16.2670280">
        <ele>578.8510742</ele>
        <time>2007-11-16T12:00:04Z</time>
      </trkpt>
      <trkpt lat="28.5667382" lon="-16.2669757">
        <ele>576.4477539</ele>
        <time>2007-11-16T12:00:19Z</time>
      </trkpt>
      <trkpt lat="28.5667442" lon="-16.2669705">
        <ele>575.9670410</ele>
        <time>2007-11-16T12:00:20Z</time>
      </trkpt>
      <trkpt lat="28.5668305" lon="-16.2668535">
        <ele>577.8896484</ele>
        <time>2007-11-16T12:00:36Z</time>
      </trkpt>
      <trkpt lat="28.5668957" lon="-16.2667807">
        <ele>577.8896484</ele>
        <time>2007-11-16T12:00:50Z</time>
      </trkpt>
      <trkpt lat="28.5669506" lon="-16.2667607">
        <ele>581.2543945</ele>
        <time>2007-11-16T12:00:58Z</time>
      </trkpt>
      <trkpt lat="28.5669674" lon="-16.2667637">
        <ele>581.2543945</ele>
        <time>2007-11-16T12:01:00Z</time>
      </trkpt>
      <trkpt lat="28.5671264" lon="-16.2668067">
        <ele>580.2929688</ele>
        <time>2007-11-16T12:01:16Z</time>
      </trkpt>
      <trkpt lat="28.5671889" lon="-16.2668156">
        <ele>578.3703613</ele>
        <time>2007-11-16T12:01:23Z</time>
      </trkpt>
      <trkpt lat="28.5673834" lon="-16.2668541">
        <ele>577.4091797</ele>
        <time>2007-11-16T12:01:41Z</time>
      </trkpt>
      <trkpt lat="28.5675358" lon="-16.2668631">
        <ele>574.5251465</ele>
        <time>2007-11-16T12:01:56Z</time>
      </trkpt>
      <trkpt lat="28.5676727" lon="-16.2668575">
        <ele>574.0444336</ele>
        <time>2007-11-16T12:02:13Z</time>
      </trkpt>
      <trkpt lat="28.5677717" lon="-16.2668942">
        <ele>572.6025391</ele>
        <time>2007-11-16T12:02:27Z</time>
      </trkpt>
      <trkpt lat="28.5678271" lon="-16.2669259">
        <ele>569.2377930</ele>
        <time>2007-11-16T12:02:39Z</time>
      </trkpt>
      <trkpt lat="28.5678568" lon="-16.2669497">
        <ele>567.7956543</ele>
        <time>2007-11-16T12:02:44Z</time>
      </trkpt>
      <trkpt lat="28.5679216" lon="-16.2670032">
        <ele>567.3151855</ele>
        <time>2007-11-16T12:02:53Z</time>
      </trkpt>
      <trkpt lat="28.5680220" lon="-16.2670777">
        <ele>563.4699707</ele>
        <time>2007-11-16T12:03:08Z</time>
      </trkpt>
      <trkpt lat="28.5680592" lon="-16.2672093">
        <ele>560.5859375</ele>
        <time>2007-11-16T12:03:24Z</time>
      </trkpt>
      <trkpt lat="28.5680791" lon="-16.2672355">
        <ele>559.6247559</ele>
        <time>2007-11-16T12:03:28Z</time>
      </trkpt>
      <trkpt lat="28.5681496" lon="-16.2672832">
        <ele>558.1828613</ele>
        <time>2007-11-16T12:03:37Z</time>
      </trkpt>
      <trkpt lat="28.5682770" lon="-16.2672918">
        <ele>558.6633301</ele>
        <time>2007-11-16T12:03:50Z</time>
      </trkpt>
      <trkpt lat="28.5683728" lon="-16.2672896">
        <ele>559.1440430</ele>
        <time>2007-11-16T12:03:59Z</time>
      </trkpt>
      <trkpt lat="28.5683930" lon="-16.2672073">
        <ele>561.0666504</ele>
        <time>2007-11-16T12:04:17Z</time>
      </trkpt>
      <trkpt lat="28.5683967" lon="-16.2670674">
        <ele>559.6247559</ele>
        <time>2007-11-16T12:04:29Z</time>
      </trkpt>
      <trkpt lat="28.5683732" lon="-16.2670065">
        <ele>560.1052246</ele>
        <time>2007-11-16T12:04:35Z</time>
      </trkpt>
      <trkpt lat="28.5683778" lon="-16.2668781">
        <ele>559.6247559</ele>
        <time>2007-11-16T12:04:45Z</time>
      </trkpt>
      <trkpt lat="28.5683934" lon="-16.2668451">
        <ele>559.6247559</ele>
        <time>2007-11-16T12:04:48Z</time>
      </trkpt>
      <trkpt lat="28.5684215" lon="-16.2667677">
        <ele>560.1052246</ele>
        <time>2007-11-16T12:05:01Z</time>
      </trkpt>
      <trkpt lat="28.5684329" lon="-16.2667453">
        <ele>559.6247559</ele>
        <time>2007-11-16T12:05:04Z</time>
      </trkpt>
      <trkpt lat="28.5684722" lon="-16.2667067">
        <ele>559.6247559</ele>
        <time>2007-11-16T12:05:09Z</time>
      </trkpt>
      <trkpt lat="28.5685183" lon="-16.2666845">
        <ele>560.1052246</ele>
        <time>2007-11-16T12:05:15Z</time>
      </trkpt>
      <trkpt lat="28.5686146" lon="-16.2666979">
        <ele>558.6633301</ele>
        <time>2007-11-16T12:05:25Z</time>
      </trkpt>
      <trkpt lat="28.5686437" lon="-16.2666830">
        <ele>559.6247559</ele>
        <time>2007-11-16T12:05:29Z</time>
      </trkpt>
      <trkpt lat="28.5687966" lon="-16.2666395">
        <ele>560.1052246</ele>
        <time>2007-11-16T12:05:46Z</time>
      </trkpt>
      <trkpt lat="28.5689242" lon="-16.2665393">
        <ele>562.0280762</ele>
        <time>2007-11-16T12:06:02Z</time>
      </trkpt>
      <trkpt lat="28.5690829" lon="-16.2663969">
        <ele>563.4699707</ele>
        <time>2007-11-16T12:06:25Z</time>
      </trkpt>
      <trkpt lat="28.5691135" lon="-16.2663639">
        <ele>563.9504395</ele>
        <time>2007-11-16T12:07:04Z</time>
      </trkpt>
      <trkpt lat="28.5690993" lon="-16.2663613">
        <ele>564.4311523</ele>
        <time>2007-11-16T12:07:25Z</time>
      </trkpt>
      <trkpt lat="28.5691203" lon="-16.2663188">
        <ele>566.8344727</ele>
        <time>2007-11-16T12:07:44Z</time>
      </trkpt>
      <trkpt lat="28.5691218" lon="-16.2663081">
        <ele>567.7956543</ele>
        <time>2007-11-16T12:08:19Z</time>
      </trkpt>
      <trkpt lat="28.5691498" lon="-16.2662611">
        <ele>570.1989746</ele>
        <time>2007-11-16T12:08:34Z</time>
      </trkpt>
      <trkpt lat="28.5691798" lon="-16.2662577">
        <ele>571.6408691</ele>
        <time>2007-11-16T12:08:48Z</time>
      </trkpt>
      <trkpt lat="28.5692066" lon="-16.2662163">
        <ele>574.0444336</ele>
        <time>2007-11-16T12:09:16Z</time>
      </trkpt>
      <trkpt lat="28.5692271" lon="-16.2661418">
        <ele>577.4091797</ele>
        <time>2007-11-16T12:09:28Z</time>
      </trkpt>
      <trkpt lat="28.5692822" lon="-16.2661050">
        <ele>578.3703613</ele>
        <time>2007-11-16T12:09:39Z</time>
      </trkpt>
      <trkpt lat="28.5693518" lon="-16.2660525">
        <ele>581.7348633</ele>
        <time>2007-11-16T12:09:52Z</time>
      </trkpt>
      <trkpt lat="28.5693736" lon="-16.2660152">
        <ele>583.1767578</ele>
        <time>2007-11-16T12:10:05Z</time>
      </trkpt>
      <trkpt lat="28.5694506" lon="-16.2659946">
        <ele>583.6574707</ele>
        <time>2007-11-16T12:10:18Z</time>
      </trkpt>
      <trkpt lat="28.5694449" lon="-16.2660146">
        <ele>583.6574707</ele>
        <time>2007-11-16T12:10:32Z</time>
      </trkpt>
      <trkpt lat="28.5694662" lon="-16.2659998">
        <ele>583.1767578</ele>
        <time>2007-11-16T12:11:10Z</time>
      </trkpt>
      <trkpt lat="28.5694662" lon="-16.2659403">
        <ele>585.5800781</ele>
        <time>2007-11-16T12:11:24Z</time>
      </trkpt>
      <trkpt lat="28.5694791" lon="-16.2658899">
        <ele>588.4643555</ele>
        <time>2007-11-16T12:11:34Z</time>
      </trkpt>
      <trkpt lat="28.5694938" lon="-16.2658410">
        <ele>591.8288574</ele>
        <time>2007-11-16T12:11:41Z</time>
      </trkpt>
      <trkpt lat="28.5694949" lon="-16.2658314">
        <ele>591.8288574</ele>
        <time>2007-11-16T12:11:42Z</time>
      </trkpt>
      <trkpt lat="28.5694825" lon="-16.2657678">
        <ele>593.2707520</ele>
        <time>2007-11-16T12:11:54Z</time>
      </trkpt>
      <trkpt lat="28.5694263" lon="-16.2657893">
        <ele>594.2321777</ele>
        <time>2007-11-16T12:12:10Z</time>
      </trkpt>
      <trkpt lat="28.5694535" lon="-16.2657853">
        <ele>594.2321777</ele>
        <time>2007-11-16T12:12:14Z</time>
      </trkpt>
      <trkpt lat="28.5694935" lon="-16.2658460">
        <ele>591.8288574</ele>
        <time>2007-11-16T12:12:24Z</time>
      </trkpt>
      <trkpt lat="28.5695445" lon="-16.2658773">
        <ele>589.4255371</ele>
        <time>2007-11-16T12:12:36Z</time>
      </trkpt>
      <trkpt lat="28.5695277" lon="-16.2658906">
        <ele>588.9450684</ele>
        <time>2007-11-16T12:12:57Z</time>
      </trkpt>
      <trkpt lat="28.5694957" lon="-16.2658851">
        <ele>589.4255371</ele>
        <time>2007-11-16T12:13:14Z</time>
      </trkpt>
      <trkpt lat="28.5695075" lon="-16.2658863">
        <ele>589.4255371</ele>
        <time>2007-11-16T12:13:26Z</time>
      </trkpt>
      <trkpt lat="28.5695787" lon="-16.2659055">
        <ele>588.4643555</ele>
        <time>2007-11-16T12:13:39Z</time>
      </trkpt>
      <trkpt lat="28.5696158" lon="-16.2659113">
        <ele>588.4643555</ele>
        <time>2007-11-16T12:13:54Z</time>
      </trkpt>
      <trkpt lat="28.5696243" lon="-16.2659143">
        <ele>587.9833984</ele>
        <time>2007-11-16T12:14:28Z</time>
      </trkpt>
      <trkpt lat="28.5696108" lon="-16.2659096">
        <ele>587.5026855</ele>
        <time>2007-11-16T12:15:12Z</time>
      </trkpt>
      <trkpt lat="28.5696020" lon="-16.2659071">
        <ele>587.5026855</ele>
        <time>2007-11-16T12:15:13Z</time>
      </trkpt>
      <trkpt lat="28.5695653" lon="-16.2658968">
        <ele>588.4643555</ele>
        <time>2007-11-16T12:15:17Z</time>
      </trkpt>
      <trkpt lat="28.5695365" lon="-16.2658754">
        <ele>589.4255371</ele>
        <time>2007-11-16T12:15:21Z</time>
      </trkpt>
      <trkpt lat="28.5695351" lon="-16.2658830">
        <ele>588.9450684</ele>
        <time>2007-11-16T12:15:32Z</time>
      </trkpt>
      <trkpt lat="28.5695314" lon="-16.2658822">
        <ele>588.4643555</ele>
        <time>2007-11-16T12:15:56Z</time>
      </trkpt>
      <trkpt lat="28.5695252" lon="-16.2658734">
        <ele>584.6188965</ele>
        <time>2007-11-16T12:20:01Z</time>
      </trkpt>
      <trkpt lat="28.5695254" lon="-16.2658735">
        <ele>591.8288574</ele>
        <time>2007-11-16T12:20:02Z</time>
      </trkpt>
      <trkpt lat="28.5695249" lon="-16.2658721">
        <ele>588.4643555</ele>
        <time>2007-11-16T12:20:03Z</time>
      </trkpt>
      <trkpt lat="28.5695227" lon="-16.2658674">
        <ele>589.9062500</ele>
        <time>2007-11-16T12:21:20Z</time>
      </trkpt>
      <trkpt lat="28.5694993" lon="-16.2658388">
        <ele>591.3481445</ele>
        <time>2007-11-16T12:22:20Z</time>
      </trkpt>
      <trkpt lat="28.5694575" lon="-16.2657766">
        <ele>593.7514648</ele>
        <time>2007-11-16T12:22:28Z</time>
      </trkpt>
      <trkpt lat="28.5694096" lon="-16.2657181">
        <ele>596.6354980</ele>
        <time>2007-11-16T12:22:43Z</time>
      </trkpt>
      <trkpt lat="28.5693891" lon="-16.2656671">
        <ele>598.5578613</ele>
        <time>2007-11-16T12:23:00Z</time>
      </trkpt>
      <trkpt lat="28.5693154" lon="-16.2655732">
        <ele>600.0000000</ele>
        <time>2007-11-16T12:23:14Z</time>
      </trkpt>
      <trkpt lat="28.5693107" lon="-16.2655572">
        <ele>600.9611816</ele>
        <time>2007-11-16T12:23:29Z</time>
      </trkpt>
      <trkpt lat="28.5693164" lon="-16.2655701">
        <ele>600.9611816</ele>
        <time>2007-11-16T12:23:43Z</time>
      </trkpt>
      <trkpt lat="28.5693332" lon="-16.2655554">
        <ele>600.4807129</ele>
        <time>2007-11-16T12:24:09Z</time>
      </trkpt>
      <trkpt lat="28.5693455" lon="-16.2655608">
        <ele>601.4418945</ele>
        <time>2007-11-16T12:24:29Z</time>
      </trkpt>
      <trkpt lat="28.5692865" lon="-16.2656034">
        <ele>601.4418945</ele>
        <time>2007-11-16T12:24:44Z</time>
      </trkpt>
      <trkpt lat="28.5692682" lon="-16.2656101">
        <ele>600.9611816</ele>
        <time>2007-11-16T12:25:10Z</time>
      </trkpt>
      <trkpt lat="28.5691953" lon="-16.2656261">
        <ele>599.5192871</ele>
        <time>2007-11-16T12:25:17Z</time>
      </trkpt>
      <trkpt lat="28.5691446" lon="-16.2656423">
        <ele>599.0385742</ele>
        <time>2007-11-16T12:25:23Z</time>
      </trkpt>
      <trkpt lat="28.5690919" lon="-16.2657220">
        <ele>598.0773926</ele>
        <time>2007-11-16T12:25:37Z</time>
      </trkpt>
      <trkpt lat="28.5690706" lon="-16.2657525">
        <ele>597.5966797</ele>
        <time>2007-11-16T12:25:44Z</time>
      </trkpt>
      <trkpt lat="28.5690206" lon="-16.2657786">
        <ele>596.6354980</ele>
        <time>2007-11-16T12:25:49Z</time>
      </trkpt>
      <trkpt lat="28.5688987" lon="-16.2658759">
        <ele>597.1159668</ele>
        <time>2007-11-16T12:26:05Z</time>
      </trkpt>
      <trkpt lat="28.5688259" lon="-16.2659132">
        <ele>598.0773926</ele>
        <time>2007-11-16T12:26:14Z</time>
      </trkpt>
      <trkpt lat="28.5687322" lon="-16.2659213">
        <ele>599.5192871</ele>
        <time>2007-11-16T12:26:24Z</time>
      </trkpt>
      <trkpt lat="28.5687104" lon="-16.2659384">
        <ele>600.0000000</ele>
        <time>2007-11-16T12:26:27Z</time>
      </trkpt>
      <trkpt lat="28.5685612" lon="-16.2660246">
        <ele>600.9611816</ele>
        <time>2007-11-16T12:26:46Z</time>
      </trkpt>
      <trkpt lat="28.5685644" lon="-16.2660147">
        <ele>600.9611816</ele>
        <time>2007-11-16T12:26:59Z</time>
      </trkpt>
      <trkpt lat="28.5686079" lon="-16.2659888">
        <ele>600.9611816</ele>
        <time>2007-11-16T12:27:03Z</time>
      </trkpt>
      <trkpt lat="28.5686023" lon="-16.2659022">
        <ele>604.3261719</ele>
        <time>2007-11-16T12:27:13Z</time>
      </trkpt>
      <trkpt lat="28.5684743" lon="-16.2658739">
        <ele>606.7292480</ele>
        <time>2007-11-16T12:27:31Z</time>
      </trkpt>
      <trkpt lat="28.5684242" lon="-16.2659003">
        <ele>610.0937500</ele>
        <time>2007-11-16T12:27:41Z</time>
      </trkpt>
      <trkpt lat="28.5683659" lon="-16.2658968">
        <ele>612.0166016</ele>
        <time>2007-11-16T12:27:56Z</time>
      </trkpt>
      <trkpt lat="28.5682749" lon="-16.2658992">
        <ele>613.9389648</ele>
        <time>2007-11-16T12:28:12Z</time>
      </trkpt>
      <trkpt lat="28.5682281" lon="-16.2658970">
        <ele>614.9003906</ele>
        <time>2007-11-16T12:28:17Z</time>
      </trkpt>
      <trkpt lat="28.5682013" lon="-16.2659118">
        <ele>614.4196777</ele>
        <time>2007-11-16T12:28:20Z</time>
      </trkpt>
      <trkpt lat="28.5681749" lon="-16.2659169">
        <ele>613.9389648</ele>
        <time>2007-11-16T12:28:40Z</time>
      </trkpt>
      <trkpt lat="28.5681700" lon="-16.2659127">
        <ele>612.9777832</ele>
        <time>2007-11-16T12:28:54Z</time>
      </trkpt>
      <trkpt lat="28.5681241" lon="-16.2658971">
        <ele>613.4584961</ele>
        <time>2007-11-16T12:28:58Z</time>
      </trkpt>
      <trkpt lat="28.5680511" lon="-16.2658827">
        <ele>614.4196777</ele>
        <time>2007-11-16T12:29:05Z</time>
      </trkpt>
      <trkpt lat="28.5679934" lon="-16.2658852">
        <ele>614.4196777</ele>
        <time>2007-11-16T12:29:11Z</time>
      </trkpt>
      <trkpt lat="28.5679369" lon="-16.2658504">
        <ele>615.3811035</ele>
        <time>2007-11-16T12:29:25Z</time>
      </trkpt>
      <trkpt lat="28.5679366" lon="-16.2658401">
        <ele>616.8229980</ele>
        <time>2007-11-16T12:29:32Z</time>
      </trkpt>
      <trkpt lat="28.5679293" lon="-16.2658388">
        <ele>616.8229980</ele>
        <time>2007-11-16T12:29:45Z</time>
      </trkpt>
      <trkpt lat="28.5678045" lon="-16.2659148">
        <ele>616.3422852</ele>
        <time>2007-11-16T12:30:00Z</time>
      </trkpt>
      <trkpt lat="28.5676539" lon="-16.2659292">
        <ele>618.7456055</ele>
        <time>2007-11-16T12:30:18Z</time>
      </trkpt>
      <trkpt lat="28.5676388" lon="-16.2659298">
        <ele>619.7070313</ele>
        <time>2007-11-16T12:30:20Z</time>
      </trkpt>
      <trkpt lat="28.5675911" lon="-16.2659226">
        <ele>620.6684570</ele>
        <time>2007-11-16T12:30:35Z</time>
      </trkpt>
      <trkpt lat="28.5674440" lon="-16.2659146">
        <ele>622.5910645</ele>
        <time>2007-11-16T12:30:51Z</time>
      </trkpt>
      <trkpt lat="28.5673399" lon="-16.2659474">
        <ele>624.5136719</ele>
        <time>2007-11-16T12:31:02Z</time>
      </trkpt>
      <trkpt lat="28.5672793" lon="-16.2659972">
        <ele>627.8781738</ele>
        <time>2007-11-16T12:31:13Z</time>
      </trkpt>
      <trkpt lat="28.5672531" lon="-16.2659831">
        <ele>628.3588867</ele>
        <time>2007-11-16T12:31:26Z</time>
      </trkpt>
      <trkpt lat="28.5672181" lon="-16.2659650">
        <ele>629.8007813</ele>
        <time>2007-11-16T12:31:30Z</time>
      </trkpt>
      <trkpt lat="28.5671123" lon="-16.2659180">
        <ele>632.2041016</ele>
        <time>2007-11-16T12:31:42Z</time>
      </trkpt>
      <trkpt lat="28.5670260" lon="-16.2658780">
        <ele>633.1652832</ele>
        <time>2007-11-16T12:31:55Z</time>
      </trkpt>
      <trkpt lat="28.5668602" lon="-16.2658086">
        <ele>635.0881348</ele>
        <time>2007-11-16T12:32:14Z</time>
      </trkpt>
      <trkpt lat="28.5667794" lon="-16.2657795">
        <ele>634.1267090</ele>
        <time>2007-11-16T12:32:26Z</time>
      </trkpt>
      <trkpt lat="28.5666903" lon="-16.2657599">
        <ele>635.0881348</ele>
        <time>2007-11-16T12:32:33Z</time>
      </trkpt>
      <trkpt lat="28.5665810" lon="-16.2656740">
        <ele>637.4914551</ele>
        <time>2007-11-16T12:32:48Z</time>
      </trkpt>
      <trkpt lat="28.5665337" lon="-16.2656391">
        <ele>635.5686035</ele>
        <time>2007-11-16T12:32:59Z</time>
      </trkpt>
      <trkpt lat="28.5665208" lon="-16.2656284">
        <ele>632.6848145</ele>
        <time>2007-11-16T12:33:16Z</time>
      </trkpt>
      <trkpt lat="28.5664515" lon="-16.2656071">
        <ele>634.1267090</ele>
        <time>2007-11-16T12:33:28Z</time>
      </trkpt>
      <trkpt lat="28.5664095" lon="-16.2655547">
        <ele>633.6459961</ele>
        <time>2007-11-16T12:33:33Z</time>
      </trkpt>
      <trkpt lat="28.5663934" lon="-16.2655357">
        <ele>633.1652832</ele>
        <time>2007-11-16T12:33:35Z</time>
      </trkpt>
      <trkpt lat="28.5662651" lon="-16.2654226">
        <ele>633.1652832</ele>
        <time>2007-11-16T12:33:53Z</time>
      </trkpt>
      <trkpt lat="28.5661350" lon="-16.2653834">
        <ele>632.2041016</ele>
        <time>2007-11-16T12:34:08Z</time>
      </trkpt>
      <trkpt lat="28.5661733" lon="-16.2653831">
        <ele>632.6848145</ele>
        <time>2007-11-16T12:34:17Z</time>
      </trkpt>
      <trkpt lat="28.5661624" lon="-16.2654675">
        <ele>633.1652832</ele>
        <time>2007-11-16T12:34:32Z</time>
      </trkpt>
      <trkpt lat="28.5661517" lon="-16.2655211">
        <ele>633.6459961</ele>
        <time>2007-11-16T12:34:44Z</time>
      </trkpt>
      <trkpt lat="28.5661406" lon="-16.2655616">
        <ele>632.6848145</ele>
        <time>2007-11-16T12:34:56Z</time>
      </trkpt>
      <trkpt lat="28.5661080" lon="-16.2655423">
        <ele>631.2429199</ele>
        <time>2007-11-16T12:34:59Z</time>
      </trkpt>
      <trkpt lat="28.5660884" lon="-16.2656169">
        <ele>631.7233887</ele>
        <time>2007-11-16T12:35:13Z</time>
      </trkpt>
      <trkpt lat="28.5660242" lon="-16.2655513">
        <ele>630.7622070</ele>
        <time>2007-11-16T12:35:39Z</time>
      </trkpt>
      <trkpt lat="28.5659820" lon="-16.2655370">
        <ele>629.3200684</ele>
        <time>2007-11-16T12:35:56Z</time>
      </trkpt>
      <trkpt lat="28.5659650" lon="-16.2655957">
        <ele>627.8781738</ele>
        <time>2007-11-16T12:36:06Z</time>
      </trkpt>
      <trkpt lat="28.5659242" lon="-16.2656870">
        <ele>624.9943848</ele>
        <time>2007-11-16T12:36:19Z</time>
      </trkpt>
      <trkpt lat="28.5659771" lon="-16.2658095">
        <ele>623.5524902</ele>
        <time>2007-11-16T12:36:34Z</time>
      </trkpt>
      <trkpt lat="28.5660142" lon="-16.2658680">
        <ele>622.1103516</ele>
        <time>2007-11-16T12:36:48Z</time>
      </trkpt>
      <trkpt lat="28.5659982" lon="-16.2658780">
        <ele>621.6296387</ele>
        <time>2007-11-16T12:36:58Z</time>
      </trkpt>
      <trkpt lat="28.5659703" lon="-16.2658951">
        <ele>621.1491699</ele>
        <time>2007-11-16T12:37:13Z</time>
      </trkpt>
      <trkpt lat="28.5659636" lon="-16.2658961">
        <ele>620.6684570</ele>
        <time>2007-11-16T12:37:14Z</time>
      </trkpt>
      <trkpt lat="28.5658615" lon="-16.2659713">
        <ele>623.0717773</ele>
        <time>2007-11-16T12:37:32Z</time>
      </trkpt>
      <trkpt lat="28.5658128" lon="-16.2660056">
        <ele>624.9943848</ele>
        <time>2007-11-16T12:37:48Z</time>
      </trkpt>
      <trkpt lat="28.5657847" lon="-16.2660100">
        <ele>624.5136719</ele>
        <time>2007-11-16T12:38:03Z</time>
      </trkpt>
      <trkpt lat="28.5657346" lon="-16.2659996">
        <ele>624.0329590</ele>
        <time>2007-11-16T12:38:16Z</time>
      </trkpt>
      <trkpt lat="28.5657178" lon="-16.2659940">
        <ele>624.0329590</ele>
        <time>2007-11-16T12:38:18Z</time>
      </trkpt>
      <trkpt lat="28.5655547" lon="-16.2660401">
        <ele>623.5524902</ele>
        <time>2007-11-16T12:38:32Z</time>
      </trkpt>
      <trkpt lat="28.5654624" lon="-16.2660675">
        <ele>622.1103516</ele>
        <time>2007-11-16T12:38:46Z</time>
      </trkpt>
      <trkpt lat="28.5654304" lon="-16.2660804">
        <ele>620.6684570</ele>
        <time>2007-11-16T12:38:49Z</time>
      </trkpt>
      <trkpt lat="28.5652842" lon="-16.2661089">
        <ele>620.1877441</ele>
        <time>2007-11-16T12:39:04Z</time>
      </trkpt>
      <trkpt lat="28.5651529" lon="-16.2661370">
        <ele>618.7456055</ele>
        <time>2007-11-16T12:39:16Z</time>
      </trkpt>
      <trkpt lat="28.5650648" lon="-16.2661523">
        <ele>617.7841797</ele>
        <time>2007-11-16T12:39:30Z</time>
      </trkpt>
      <trkpt lat="28.5649962" lon="-16.2661625">
        <ele>614.4196777</ele>
        <time>2007-11-16T12:39:45Z</time>
      </trkpt>
      <trkpt lat="28.5649208" lon="-16.2661858">
        <ele>612.4970703</ele>
        <time>2007-11-16T12:39:56Z</time>
      </trkpt>
      <trkpt lat="28.5647916" lon="-16.2661964">
        <ele>610.0937500</ele>
        <time>2007-11-16T12:40:11Z</time>
      </trkpt>
      <trkpt lat="28.5647814" lon="-16.2662013">
        <ele>610.5744629</ele>
        <time>2007-11-16T12:40:12Z</time>
      </trkpt>
      <trkpt lat="28.5647217" lon="-16.2662128">
        <ele>606.7292480</ele>
        <time>2007-11-16T12:40:23Z</time>
      </trkpt>
      <trkpt lat="28.5646818" lon="-16.2662148">
        <ele>606.2485352</ele>
        <time>2007-11-16T12:40:27Z</time>
      </trkpt>
      <trkpt lat="28.5646348" lon="-16.2662443">
        <ele>605.7680664</ele>
        <time>2007-11-16T12:40:32Z</time>
      </trkpt>
      <trkpt lat="28.5646460" lon="-16.2662826">
        <ele>605.7680664</ele>
        <time>2007-11-16T12:40:51Z</time>
      </trkpt>
      <trkpt lat="28.5646331" lon="-16.2663302">
        <ele>605.2873535</ele>
        <time>2007-11-16T12:41:09Z</time>
      </trkpt>
      <trkpt lat="28.5645171" lon="-16.2663743">
        <ele>605.2873535</ele>
        <time>2007-11-16T12:41:29Z</time>
      </trkpt>
      <trkpt lat="28.5643471" lon="-16.2664143">
        <ele>605.2873535</ele>
        <time>2007-11-16T12:41:44Z</time>
      </trkpt>
      <trkpt lat="28.5642079" lon="-16.2664726">
        <ele>605.2873535</ele>
        <time>2007-11-16T12:42:01Z</time>
      </trkpt>
      <trkpt lat="28.5640711" lon="-16.2665153">
        <ele>608.6518555</ele>
        <time>2007-11-16T12:42:17Z</time>
      </trkpt>
      <trkpt lat="28.5640522" lon="-16.2665207">
        <ele>609.6132813</ele>
        <time>2007-11-16T12:42:19Z</time>
      </trkpt>
      <trkpt lat="28.5639126" lon="-16.2665865">
        <ele>611.5358887</ele>
        <time>2007-11-16T12:42:38Z</time>
      </trkpt>
      <trkpt lat="28.5638734" lon="-16.2665933">
        <ele>608.6518555</ele>
        <time>2007-11-16T12:42:49Z</time>
      </trkpt>
      <trkpt lat="28.5638682" lon="-16.2665911">
        <ele>609.1325684</ele>
        <time>2007-11-16T12:42:50Z</time>
      </trkpt>
      <trkpt lat="28.5638506" lon="-16.2666010">
        <ele>606.7292480</ele>
        <time>2007-11-16T12:42:54Z</time>
      </trkpt>
      <trkpt lat="28.5638742" lon="-16.2666855">
        <ele>603.8452148</ele>
        <time>2007-11-16T12:43:07Z</time>
      </trkpt>
      <trkpt lat="28.5638475" lon="-16.2667346">
        <ele>602.8837891</ele>
        <time>2007-11-16T12:43:23Z</time>
      </trkpt>
      <trkpt lat="28.5638460" lon="-16.2667290">
        <ele>602.4030762</ele>
        <time>2007-11-16T12:43:24Z</time>
      </trkpt>
      <trkpt lat="28.5638201" lon="-16.2667281">
        <ele>600.9611816</ele>
        <time>2007-11-16T12:43:36Z</time>
      </trkpt>
      <trkpt lat="28.5637802" lon="-16.2666902">
        <ele>597.5966797</ele>
        <time>2007-11-16T12:43:48Z</time>
      </trkpt>
      <trkpt lat="28.5637692" lon="-16.2666939">
        <ele>596.6354980</ele>
        <time>2007-11-16T12:43:52Z</time>
      </trkpt>
      <trkpt lat="28.5637210" lon="-16.2666012">
        <ele>594.7126465</ele>
        <time>2007-11-16T12:44:05Z</time>
      </trkpt>
      <trkpt lat="28.5636584" lon="-16.2663701">
        <ele>592.3095703</ele>
        <time>2007-11-16T12:44:27Z</time>
      </trkpt>
      <trkpt lat="28.5636926" lon="-16.2662721">
        <ele>588.9450684</ele>
        <time>2007-11-16T12:44:40Z</time>
      </trkpt>
      <trkpt lat="28.5637137" lon="-16.2662344">
        <ele>587.0219727</ele>
        <time>2007-11-16T12:44:59Z</time>
      </trkpt>
      <trkpt lat="28.5637245" lon="-16.2661835">
        <ele>585.5800781</ele>
        <time>2007-11-16T12:45:13Z</time>
      </trkpt>
      <trkpt lat="28.5636605" lon="-16.2661100">
        <ele>582.2155762</ele>
        <time>2007-11-16T12:45:28Z</time>
      </trkpt>
      <trkpt lat="28.5636418" lon="-16.2660765">
        <ele>581.2543945</ele>
        <time>2007-11-16T12:45:33Z</time>
      </trkpt>
      <trkpt lat="28.5635413" lon="-16.2659630">
        <ele>579.8122559</ele>
        <time>2007-11-16T12:45:49Z</time>
      </trkpt>
      <trkpt lat="28.5634020" lon="-16.2657607">
        <ele>582.2155762</ele>
        <time>2007-11-16T12:46:12Z</time>
      </trkpt>
      <trkpt lat="28.5632087" lon="-16.2656869">
        <ele>584.1381836</ele>
        <time>2007-11-16T12:46:29Z</time>
      </trkpt>
      <trkpt lat="28.5630166" lon="-16.2656496">
        <ele>584.1381836</ele>
        <time>2007-11-16T12:46:44Z</time>
      </trkpt>
      <trkpt lat="28.5629689" lon="-16.2656283">
        <ele>584.1381836</ele>
        <time>2007-11-16T12:46:59Z</time>
      </trkpt>
      <trkpt lat="28.5628040" lon="-16.2655853">
        <ele>585.0996094</ele>
        <time>2007-11-16T12:47:16Z</time>
      </trkpt>
      <trkpt lat="28.5626270" lon="-16.2655561">
        <ele>587.9833984</ele>
        <time>2007-11-16T12:47:31Z</time>
      </trkpt>
      <trkpt lat="28.5625032" lon="-16.2654823">
        <ele>588.4643555</ele>
        <time>2007-11-16T12:47:44Z</time>
      </trkpt>
      <trkpt lat="28.5623953" lon="-16.2654165">
        <ele>588.9450684</ele>
        <time>2007-11-16T12:47:54Z</time>
      </trkpt>
      <trkpt lat="28.5623523" lon="-16.2653869">
        <ele>589.4255371</ele>
        <time>2007-11-16T12:47:59Z</time>
      </trkpt>
      <trkpt lat="28.5622794" lon="-16.2652315">
        <ele>586.0607910</ele>
        <time>2007-11-16T12:48:16Z</time>
      </trkpt>
      <trkpt lat="28.5622095" lon="-16.2651034">
        <ele>582.6962891</ele>
        <time>2007-11-16T12:48:30Z</time>
      </trkpt>
      <trkpt lat="28.5622331" lon="-16.2650434">
        <ele>581.7348633</ele>
        <time>2007-11-16T12:48:36Z</time>
      </trkpt>
      <trkpt lat="28.5622604" lon="-16.2650005">
        <ele>580.7736816</ele>
        <time>2007-11-16T12:48:40Z</time>
      </trkpt>
      <trkpt lat="28.5622552" lon="-16.2649742">
        <ele>579.3315430</ele>
        <time>2007-11-16T12:48:43Z</time>
      </trkpt>
      <trkpt lat="28.5620954" lon="-16.2648690">
        <ele>577.8896484</ele>
        <time>2007-11-16T12:49:04Z</time>
      </trkpt>
      <trkpt lat="28.5620324" lon="-16.2648068">
        <ele>575.0058594</ele>
        <time>2007-11-16T12:49:16Z</time>
      </trkpt>
      <trkpt lat="28.5617814" lon="-16.2647074">
        <ele>574.5251465</ele>
        <time>2007-11-16T12:49:35Z</time>
      </trkpt>
      <trkpt lat="28.5617355" lon="-16.2646823">
        <ele>575.0058594</ele>
        <time>2007-11-16T12:49:40Z</time>
      </trkpt>
      <trkpt lat="28.5616940" lon="-16.2646695">
        <ele>575.9670410</ele>
        <time>2007-11-16T12:49:46Z</time>
      </trkpt>
      <trkpt lat="28.5616796" lon="-16.2646564">
        <ele>577.4091797</ele>
        <time>2007-11-16T12:49:49Z</time>
      </trkpt>
      <trkpt lat="28.5616319" lon="-16.2645908">
        <ele>580.2929688</ele>
        <time>2007-11-16T12:50:03Z</time>
      </trkpt>
      <trkpt lat="28.5615558" lon="-16.2645151">
        <ele>582.6962891</ele>
        <time>2007-11-16T12:50:18Z</time>
      </trkpt>
      <trkpt lat="28.5615473" lon="-16.2644981">
        <ele>582.6962891</ele>
        <time>2007-11-16T12:50:21Z</time>
      </trkpt>
      <trkpt lat="28.5615098" lon="-16.2643264">
        <ele>585.0996094</ele>
        <time>2007-11-16T12:50:40Z</time>
      </trkpt>
      <trkpt lat="28.5614688" lon="-16.2642753">
        <ele>584.1381836</ele>
        <time>2007-11-16T12:50:45Z</time>
      </trkpt>
      <trkpt lat="28.5613860" lon="-16.2641060">
        <ele>585.0996094</ele>
        <time>2007-11-16T12:51:03Z</time>
      </trkpt>
      <trkpt lat="28.5613578" lon="-16.2641026">
        <ele>583.6574707</ele>
        <time>2007-11-16T12:51:09Z</time>
      </trkpt>
      <trkpt lat="28.5613500" lon="-16.2641039">
        <ele>584.1381836</ele>
        <time>2007-11-16T12:51:10Z</time>
      </trkpt>
      <trkpt lat="28.5612900" lon="-16.2641324">
        <ele>584.1381836</ele>
        <time>2007-11-16T12:51:15Z</time>
      </trkpt>
      <trkpt lat="28.5611315" lon="-16.2642173">
        <ele>582.2155762</ele>
        <time>2007-11-16T12:51:32Z</time>
      </trkpt>
      <trkpt lat="28.5611086" lon="-16.2642193">
        <ele>581.2543945</ele>
        <time>2007-11-16T12:51:34Z</time>
      </trkpt>
      <trkpt lat="28.5610243" lon="-16.2642595">
        <ele>580.7736816</ele>
        <time>2007-11-16T12:51:48Z</time>
      </trkpt>
      <trkpt lat="28.5610051" lon="-16.2642742">
        <ele>579.3315430</ele>
        <time>2007-11-16T12:51:52Z</time>
      </trkpt>
      <trkpt lat="28.5609853" lon="-16.2642857">
        <ele>578.3703613</ele>
        <time>2007-11-16T12:51:54Z</time>
      </trkpt>
      <trkpt lat="28.5608694" lon="-16.2643598">
        <ele>577.4091797</ele>
        <time>2007-11-16T12:52:04Z</time>
      </trkpt>
      <trkpt lat="28.5606891" lon="-16.2644671">
        <ele>576.9284668</ele>
        <time>2007-11-16T12:52:21Z</time>
      </trkpt>
      <trkpt lat="28.5606797" lon="-16.2644808">
        <ele>576.4477539</ele>
        <time>2007-11-16T12:52:23Z</time>
      </trkpt>
      <trkpt lat="28.5606710" lon="-16.2645559">
        <ele>576.4477539</ele>
        <time>2007-11-16T12:52:39Z</time>
      </trkpt>
      <trkpt lat="28.5607218" lon="-16.2645331">
        <ele>576.4477539</ele>
        <time>2007-11-16T12:52:54Z</time>
      </trkpt>
      <trkpt lat="28.5606777" lon="-16.2644634">
        <ele>576.9284668</ele>
        <time>2007-11-16T12:53:05Z</time>
      </trkpt>
      <trkpt lat="28.5605741" lon="-16.2643342">
        <ele>573.5639648</ele>
        <time>2007-11-16T12:53:21Z</time>
      </trkpt>
      <trkpt lat="28.5604560" lon="-16.2641865">
        <ele>575.9670410</ele>
        <time>2007-11-16T12:53:34Z</time>
      </trkpt>
      <trkpt lat="28.5603373" lon="-16.2640540">
        <ele>578.8510742</ele>
        <time>2007-11-16T12:53:49Z</time>
      </trkpt>
      <trkpt lat="28.5602179" lon="-16.2640397">
        <ele>582.2155762</ele>
        <time>2007-11-16T12:54:04Z</time>
      </trkpt>
      <trkpt lat="28.5601163" lon="-16.2640541">
        <ele>586.0607910</ele>
        <time>2007-11-16T12:54:16Z</time>
      </trkpt>
      <trkpt lat="28.5600062" lon="-16.2640358">
        <ele>587.0219727</ele>
        <time>2007-11-16T12:54:26Z</time>
      </trkpt>
      <trkpt lat="28.5598992" lon="-16.2639703">
        <ele>590.3869629</ele>
        <time>2007-11-16T12:54:40Z</time>
      </trkpt>
      <trkpt lat="28.5597790" lon="-16.2639545">
        <ele>592.3095703</ele>
        <time>2007-11-16T12:54:54Z</time>
      </trkpt>
      <trkpt lat="28.5596691" lon="-16.2639282">
        <ele>595.1933594</ele>
        <time>2007-11-16T12:55:08Z</time>
      </trkpt>
      <trkpt lat="28.5597003" lon="-16.2639034">
        <ele>598.0773926</ele>
        <time>2007-11-16T12:55:23Z</time>
      </trkpt>
      <trkpt lat="28.5596883" lon="-16.2638767">
        <ele>600.0000000</ele>
        <time>2007-11-16T12:55:36Z</time>
      </trkpt>
      <trkpt lat="28.5596915" lon="-16.2638557">
        <ele>601.4418945</ele>
        <time>2007-11-16T12:55:55Z</time>
      </trkpt>
      <trkpt lat="28.5596578" lon="-16.2637473">
        <ele>603.8452148</ele>
        <time>2007-11-16T12:56:10Z</time>
      </trkpt>
      <trkpt lat="28.5596042" lon="-16.2636818">
        <ele>607.2099609</ele>
        <time>2007-11-16T12:56:22Z</time>
      </trkpt>
      <trkpt lat="28.5595985" lon="-16.2636765">
        <ele>607.2099609</ele>
        <time>2007-11-16T12:56:23Z</time>
      </trkpt>
      <trkpt lat="28.5595876" lon="-16.2636664">
        <ele>607.6906738</ele>
        <time>2007-11-16T12:56:25Z</time>
      </trkpt>
      <trkpt lat="28.5595766" lon="-16.2636512">
        <ele>609.1325684</ele>
        <time>2007-11-16T12:56:27Z</time>
      </trkpt>
      <trkpt lat="28.5594146" lon="-16.2635300">
        <ele>612.0166016</ele>
        <time>2007-11-16T12:56:43Z</time>
      </trkpt>
      <trkpt lat="28.5593164" lon="-16.2635080">
        <ele>613.4584961</ele>
        <time>2007-11-16T12:57:00Z</time>
      </trkpt>
      <trkpt lat="28.5593330" lon="-16.2634936">
        <ele>616.8229980</ele>
        <time>2007-11-16T12:57:09Z</time>
      </trkpt>
      <trkpt lat="28.5593319" lon="-16.2634839">
        <ele>616.8229980</ele>
        <time>2007-11-16T12:57:10Z</time>
      </trkpt>
      <trkpt lat="28.5593076" lon="-16.2633569">
        <ele>620.1877441</ele>
        <time>2007-11-16T12:57:24Z</time>
      </trkpt>
      <trkpt lat="28.5593066" lon="-16.2633357">
        <ele>620.6684570</ele>
        <time>2007-11-16T12:57:26Z</time>
      </trkpt>
      <trkpt lat="28.5593355" lon="-16.2632678">
        <ele>621.1491699</ele>
        <time>2007-11-16T12:57:31Z</time>
      </trkpt>
      <trkpt lat="28.5593910" lon="-16.2630547">
        <ele>619.7070313</ele>
        <time>2007-11-16T12:57:51Z</time>
      </trkpt>
      <trkpt lat="28.5594697" lon="-16.2631237">
        <ele>619.7070313</ele>
        <time>2007-11-16T12:59:33Z</time>
      </trkpt>
      <trkpt lat="28.5594849" lon="-16.2631578">
        <ele>620.1877441</ele>
        <time>2007-11-16T13:01:46Z</time>
      </trkpt>
      <trkpt lat="28.5594619" lon="-16.2631201">
        <ele>622.1103516</ele>
        <time>2007-11-16T13:04:26Z</time>
      </trkpt>
      <trkpt lat="28.5594297" lon="-16.2632187">
        <ele>623.5524902</ele>
        <time>2007-11-16T13:05:00Z</time>
      </trkpt>
      <trkpt lat="28.5593884" lon="-16.2633026">
        <ele>626.4362793</ele>
        <time>2007-11-16T13:05:16Z</time>
      </trkpt>
      <trkpt lat="28.5593403" lon="-16.2633914">
        <ele>629.8007813</ele>
        <time>2007-11-16T13:05:31Z</time>
      </trkpt>
      <trkpt lat="28.5593319" lon="-16.2635600">
        <ele>632.6848145</ele>
        <time>2007-11-16T13:05:48Z</time>
      </trkpt>
      <trkpt lat="28.5593325" lon="-16.2636030">
        <ele>634.1267090</ele>
        <time>2007-11-16T13:05:53Z</time>
      </trkpt>
      <trkpt lat="28.5592459" lon="-16.2637623">
        <ele>635.0881348</ele>
        <time>2007-11-16T13:06:08Z</time>
      </trkpt>
      <trkpt lat="28.5592118" lon="-16.2638075">
        <ele>635.5686035</ele>
        <time>2007-11-16T13:06:13Z</time>
      </trkpt>
      <trkpt lat="28.5590728" lon="-16.2639453">
        <ele>637.0107422</ele>
        <time>2007-11-16T13:06:31Z</time>
      </trkpt>
      <trkpt lat="28.5588687" lon="-16.2641551">
        <ele>634.6074219</ele>
        <time>2007-11-16T13:06:54Z</time>
      </trkpt>
      <trkpt lat="28.5586792" lon="-16.2642028">
        <ele>632.2041016</ele>
        <time>2007-11-16T13:07:10Z</time>
      </trkpt>
      <trkpt lat="28.5583809" lon="-16.2641954">
        <ele>630.2814941</ele>
        <time>2007-11-16T13:07:34Z</time>
      </trkpt>
      <trkpt lat="28.5581545" lon="-16.2643091">
        <ele>628.8395996</ele>
        <time>2007-11-16T13:07:55Z</time>
      </trkpt>
      <trkpt lat="28.5579302" lon="-16.2642580">
        <ele>629.8007813</ele>
        <time>2007-11-16T13:08:15Z</time>
      </trkpt>
      <trkpt lat="28.5578456" lon="-16.2643481">
        <ele>630.7622070</ele>
        <time>2007-11-16T13:08:28Z</time>
      </trkpt>
      <trkpt lat="28.5577665" lon="-16.2644030">
        <ele>628.3588867</ele>
        <time>2007-11-16T13:08:40Z</time>
      </trkpt>
      <trkpt lat="28.5576981" lon="-16.2643732">
        <ele>626.9169922</ele>
        <time>2007-11-16T13:08:53Z</time>
      </trkpt>
      <trkpt lat="28.5574324" lon="-16.2643948">
        <ele>625.9555664</ele>
        <time>2007-11-16T13:09:17Z</time>
      </trkpt>
      <trkpt lat="28.5573081" lon="-16.2643987">
        <ele>622.1103516</ele>
        <time>2007-11-16T13:09:29Z</time>
      </trkpt>
      <trkpt lat="28.5570910" lon="-16.2644695">
        <ele>620.1877441</ele>
        <time>2007-11-16T13:09:48Z</time>
      </trkpt>
      <trkpt lat="28.5568604" lon="-16.2645341">
        <ele>620.6684570</ele>
        <time>2007-11-16T13:10:08Z</time>
      </trkpt>
      <trkpt lat="28.5566310" lon="-16.2646717">
        <ele>623.5524902</ele>
        <time>2007-11-16T13:10:31Z</time>
      </trkpt>
      <trkpt lat="28.5565249" lon="-16.2647342">
        <ele>626.9169922</ele>
        <time>2007-11-16T13:10:41Z</time>
      </trkpt>
      <trkpt lat="28.5564796" lon="-16.2647695">
        <ele>627.3977051</ele>
        <time>2007-11-16T13:10:46Z</time>
      </trkpt>
      <trkpt lat="28.5562891" lon="-16.2648872">
        <ele>629.3200684</ele>
        <time>2007-11-16T13:11:06Z</time>
      </trkpt>
      <trkpt lat="28.5562260" lon="-16.2649117">
        <ele>630.7622070</ele>
        <time>2007-11-16T13:11:12Z</time>
      </trkpt>
      <trkpt lat="28.5559414" lon="-16.2649253">
        <ele>631.2429199</ele>
        <time>2007-11-16T13:11:36Z</time>
      </trkpt>
      <trkpt lat="28.5556331" lon="-16.2649527">
        <ele>630.2814941</ele>
        <time>2007-11-16T13:12:01Z</time>
      </trkpt>
      <trkpt lat="28.5553681" lon="-16.2648863">
        <ele>629.8007813</ele>
        <time>2007-11-16T13:12:23Z</time>
      </trkpt>
      <trkpt lat="28.5550821" lon="-16.2648379">
        <ele>628.3588867</ele>
        <time>2007-11-16T13:12:45Z</time>
      </trkpt>
      <trkpt lat="28.5547676" lon="-16.2648750">
        <ele>627.3977051</ele>
        <time>2007-11-16T13:13:11Z</time>
      </trkpt>
      <trkpt lat="28.5544269" lon="-16.2649048">
        <ele>624.9943848</ele>
        <time>2007-11-16T13:13:39Z</time>
      </trkpt>
      <trkpt lat="28.5542390" lon="-16.2650792">
        <ele>623.5524902</ele>
        <time>2007-11-16T13:13:59Z</time>
      </trkpt>
      <trkpt lat="28.5541881" lon="-16.2653762">
        <ele>622.5910645</ele>
        <time>2007-11-16T13:14:22Z</time>
      </trkpt>
      <trkpt lat="28.5539937" lon="-16.2654924">
        <ele>621.1491699</ele>
        <time>2007-11-16T13:14:42Z</time>
      </trkpt>
      <trkpt lat="28.5537220" lon="-16.2655342">
        <ele>620.1877441</ele>
        <time>2007-11-16T13:15:05Z</time>
      </trkpt>
      <trkpt lat="28.5536725" lon="-16.2655748">
        <ele>619.7070313</ele>
        <time>2007-11-16T13:15:10Z</time>
      </trkpt>
      <trkpt lat="28.5534997" lon="-16.2657319">
        <ele>619.7070313</ele>
        <time>2007-11-16T13:15:27Z</time>
      </trkpt>
      <trkpt lat="28.5532992" lon="-16.2659141">
        <ele>618.2648926</ele>
        <time>2007-11-16T13:15:47Z</time>
      </trkpt>
      <trkpt lat="28.5533110" lon="-16.2662330">
        <ele>618.2648926</ele>
        <time>2007-11-16T13:16:10Z</time>
      </trkpt>
      <trkpt lat="28.5533076" lon="-16.2662779">
        <ele>617.7841797</ele>
        <time>2007-11-16T13:16:24Z</time>
      </trkpt>
      <trkpt lat="28.5531529" lon="-16.2663576">
        <ele>616.8229980</ele>
        <time>2007-11-16T13:16:38Z</time>
      </trkpt>
      <trkpt lat="28.5530438" lon="-16.2664426">
        <ele>615.8618164</ele>
        <time>2007-11-16T13:16:48Z</time>
      </trkpt>
      <trkpt lat="28.5529967" lon="-16.2664669">
        <ele>614.9003906</ele>
        <time>2007-11-16T13:16:52Z</time>
      </trkpt>
      <trkpt lat="28.5529754" lon="-16.2664768">
        <ele>614.9003906</ele>
        <time>2007-11-16T13:16:54Z</time>
      </trkpt>
      <trkpt lat="28.5529531" lon="-16.2664721">
        <ele>614.9003906</ele>
        <time>2007-11-16T13:16:56Z</time>
      </trkpt>
      <trkpt lat="28.5529335" lon="-16.2664966">
        <ele>614.4196777</ele>
        <time>2007-11-16T13:16:59Z</time>
      </trkpt>
      <trkpt lat="28.5529329" lon="-16.2665233">
        <ele>614.4196777</ele>
        <time>2007-11-16T13:17:01Z</time>
      </trkpt>
      <trkpt lat="28.5528889" lon="-16.2665601">
        <ele>613.9389648</ele>
        <time>2007-11-16T13:17:05Z</time>
      </trkpt>
      <trkpt lat="28.5527190" lon="-16.2666300">
        <ele>612.9777832</ele>
        <time>2007-11-16T13:17:18Z</time>
      </trkpt>
      <trkpt lat="28.5524854" lon="-16.2666877">
        <ele>611.5358887</ele>
        <time>2007-11-16T13:17:37Z</time>
      </trkpt>
      <trkpt lat="28.5524175" lon="-16.2666886">
        <ele>611.5358887</ele>
        <time>2007-11-16T13:17:42Z</time>
      </trkpt>
      <trkpt lat="28.5523182" lon="-16.2666807">
        <ele>610.5744629</ele>
        <time>2007-11-16T13:17:56Z</time>
      </trkpt>
      <trkpt lat="28.5523207" lon="-16.2666950">
        <ele>609.6132813</ele>
        <time>2007-11-16T13:17:59Z</time>
      </trkpt>
      <trkpt lat="28.5523051" lon="-16.2667429">
        <ele>609.6132813</ele>
        <time>2007-11-16T13:18:05Z</time>
      </trkpt>
      <trkpt lat="28.5523336" lon="-16.2667856">
        <ele>606.7292480</ele>
        <time>2007-11-16T13:18:18Z</time>
      </trkpt>
      <trkpt lat="28.5523824" lon="-16.2668185">
        <ele>604.8066406</ele>
        <time>2007-11-16T13:18:29Z</time>
      </trkpt>
      <trkpt lat="28.5524256" lon="-16.2668546">
        <ele>601.9226074</ele>
        <time>2007-11-16T13:18:43Z</time>
      </trkpt>
      <trkpt lat="28.5524311" lon="-16.2668617">
        <ele>601.9226074</ele>
        <time>2007-11-16T13:18:44Z</time>
      </trkpt>
      <trkpt lat="28.5524340" lon="-16.2669377">
        <ele>600.0000000</ele>
        <time>2007-11-16T13:18:55Z</time>
      </trkpt>
      <trkpt lat="28.5524176" lon="-16.2669285">
        <ele>600.9611816</ele>
        <time>2007-11-16T13:19:31Z</time>
      </trkpt>
      <trkpt lat="28.5524479" lon="-16.2669695">
        <ele>597.5966797</ele>
        <time>2007-11-16T13:20:01Z</time>
      </trkpt>
      <trkpt lat="28.5524358" lon="-16.2669843">
        <ele>596.6354980</ele>
        <time>2007-11-16T13:20:03Z</time>
      </trkpt>
      <trkpt lat="28.5524498" lon="-16.2670647">
        <ele>593.2707520</ele>
        <time>2007-11-16T13:20:12Z</time>
      </trkpt>
      <trkpt lat="28.5524113" lon="-16.2671242">
        <ele>591.8288574</ele>
        <time>2007-11-16T13:20:18Z</time>
      </trkpt>
      <trkpt lat="28.5523922" lon="-16.2671975">
        <ele>591.3481445</ele>
        <time>2007-11-16T13:20:24Z</time>
      </trkpt>
      <trkpt lat="28.5523659" lon="-16.2672005">
        <ele>590.8674316</ele>
        <time>2007-11-16T13:20:27Z</time>
      </trkpt>
      <trkpt lat="28.5523299" lon="-16.2671609">
        <ele>589.9062500</ele>
        <time>2007-11-16T13:20:32Z</time>
      </trkpt>
      <trkpt lat="28.5522739" lon="-16.2672379">
        <ele>585.5800781</ele>
        <time>2007-11-16T13:20:40Z</time>
      </trkpt>
      <trkpt lat="28.5522684" lon="-16.2672507">
        <ele>585.0996094</ele>
        <time>2007-11-16T13:20:41Z</time>
      </trkpt>
      <trkpt lat="28.5522988" lon="-16.2673797">
        <ele>581.7348633</ele>
        <time>2007-11-16T13:20:52Z</time>
      </trkpt>
      <trkpt lat="28.5523161" lon="-16.2674036">
        <ele>582.2155762</ele>
        <time>2007-11-16T13:20:55Z</time>
      </trkpt>
      <trkpt lat="28.5523104" lon="-16.2674372">
        <ele>580.7736816</ele>
        <time>2007-11-16T13:20:58Z</time>
      </trkpt>
      <trkpt lat="28.5522984" lon="-16.2674818">
        <ele>580.2929688</ele>
        <time>2007-11-16T13:21:02Z</time>
      </trkpt>
      <trkpt lat="28.5522288" lon="-16.2674863">
        <ele>578.8510742</ele>
        <time>2007-11-16T13:21:09Z</time>
      </trkpt>
      <trkpt lat="28.5521031" lon="-16.2673155">
        <ele>575.0058594</ele>
        <time>2007-11-16T13:21:25Z</time>
      </trkpt>
      <trkpt lat="28.5520528" lon="-16.2672803">
        <ele>573.0832520</ele>
        <time>2007-11-16T13:21:30Z</time>
      </trkpt>
      <trkpt lat="28.5519292" lon="-16.2671721">
        <ele>570.1989746</ele>
        <time>2007-11-16T13:21:43Z</time>
      </trkpt>
      <trkpt lat="28.5518426" lon="-16.2671352">
        <ele>568.2763672</ele>
        <time>2007-11-16T13:21:51Z</time>
      </trkpt>
      <trkpt lat="28.5518033" lon="-16.2671508">
        <ele>566.8344727</ele>
        <time>2007-11-16T13:21:55Z</time>
      </trkpt>
      <trkpt lat="28.5517615" lon="-16.2673363">
        <ele>563.9504395</ele>
        <time>2007-11-16T13:22:10Z</time>
      </trkpt>
      <trkpt lat="28.5517695" lon="-16.2673614">
        <ele>563.4699707</ele>
        <time>2007-11-16T13:22:12Z</time>
      </trkpt>
      <trkpt lat="28.5516881" lon="-16.2675973">
        <ele>563.4699707</ele>
        <time>2007-11-16T13:22:30Z</time>
      </trkpt>
      <trkpt lat="28.5516062" lon="-16.2677631">
        <ele>560.1052246</ele>
        <time>2007-11-16T13:22:44Z</time>
      </trkpt>
      <trkpt lat="28.5515082" lon="-16.2679208">
        <ele>557.2214355</ele>
        <time>2007-11-16T13:22:58Z</time>
      </trkpt>
      <trkpt lat="28.5514348" lon="-16.2681070">
        <ele>553.8566895</ele>
        <time>2007-11-16T13:23:14Z</time>
      </trkpt>
      <trkpt lat="28.5514129" lon="-16.2681402">
        <ele>552.4145508</ele>
        <time>2007-11-16T13:23:18Z</time>
      </trkpt>
      <trkpt lat="28.5513951" lon="-16.2681531">
        <ele>550.9726563</ele>
        <time>2007-11-16T13:23:20Z</time>
      </trkpt>
      <trkpt lat="28.5513576" lon="-16.2682395">
        <ele>547.1274414</ele>
        <time>2007-11-16T13:23:30Z</time>
      </trkpt>
      <trkpt lat="28.5513223" lon="-16.2683159">
        <ele>545.2048340</ele>
        <time>2007-11-16T13:23:38Z</time>
      </trkpt>
      <trkpt lat="28.5513042" lon="-16.2683365">
        <ele>544.7242432</ele>
        <time>2007-11-16T13:23:41Z</time>
      </trkpt>
      <trkpt lat="28.5512811" lon="-16.2683530">
        <ele>544.2436523</ele>
        <time>2007-11-16T13:23:44Z</time>
      </trkpt>
      <trkpt lat="28.5512565" lon="-16.2683979">
        <ele>543.2821045</ele>
        <time>2007-11-16T13:23:48Z</time>
      </trkpt>
      <trkpt lat="28.5512474" lon="-16.2684125">
        <ele>543.2821045</ele>
        <time>2007-11-16T13:23:49Z</time>
      </trkpt>
      <trkpt lat="28.5512873" lon="-16.2684832">
        <ele>540.3983154</ele>
        <time>2007-11-16T13:23:55Z</time>
      </trkpt>
      <trkpt lat="28.5513023" lon="-16.2684930">
        <ele>540.3983154</ele>
        <time>2007-11-16T13:23:56Z</time>
      </trkpt>
      <trkpt lat="28.5513798" lon="-16.2684810">
        <ele>538.4757080</ele>
        <time>2007-11-16T13:24:05Z</time>
      </trkpt>
      <trkpt lat="28.5513394" lon="-16.2685749">
        <ele>534.6303711</ele>
        <time>2007-11-16T13:24:13Z</time>
      </trkpt>
      <trkpt lat="28.5512929" lon="-16.2686852">
        <ele>531.2657471</ele>
        <time>2007-11-16T13:24:27Z</time>
      </trkpt>
      <trkpt lat="28.5512881" lon="-16.2686924">
        <ele>531.2657471</ele>
        <time>2007-11-16T13:24:28Z</time>
      </trkpt>
      <trkpt lat="28.5512314" lon="-16.2687716">
        <ele>528.8625488</ele>
        <time>2007-11-16T13:24:38Z</time>
      </trkpt>
      <trkpt lat="28.5512220" lon="-16.2688503">
        <ele>527.4204102</ele>
        <time>2007-11-16T13:24:49Z</time>
      </trkpt>
      <trkpt lat="28.5512064" lon="-16.2688683">
        <ele>525.9783936</ele>
        <time>2007-11-16T13:24:53Z</time>
      </trkpt>
      <trkpt lat="28.5511785" lon="-16.2688900">
        <ele>524.5364990</ele>
        <time>2007-11-16T13:24:57Z</time>
      </trkpt>
      <trkpt lat="28.5511988" lon="-16.2689235">
        <ele>522.6138916</ele>
        <time>2007-11-16T13:25:01Z</time>
      </trkpt>
      <trkpt lat="28.5512567" lon="-16.2689572">
        <ele>521.1719971</ele>
        <time>2007-11-16T13:25:14Z</time>
      </trkpt>
      <trkpt lat="28.5512219" lon="-16.2690066">
        <ele>519.2492676</ele>
        <time>2007-11-16T13:25:21Z</time>
      </trkpt>
      <trkpt lat="28.5512036" lon="-16.2690138">
        <ele>519.2492676</ele>
        <time>2007-11-16T13:25:23Z</time>
      </trkpt>
      <trkpt lat="28.5512089" lon="-16.2690586">
        <ele>516.8459473</ele>
        <time>2007-11-16T13:25:35Z</time>
      </trkpt>
      <trkpt lat="28.5511945" lon="-16.2690974">
        <ele>513.4814453</ele>
        <time>2007-11-16T13:25:46Z</time>
      </trkpt>
      <trkpt lat="28.5511518" lon="-16.2691332">
        <ele>511.5587158</ele>
        <time>2007-11-16T13:25:54Z</time>
      </trkpt>
      <trkpt lat="28.5511479" lon="-16.2691608">
        <ele>511.0780029</ele>
        <time>2007-11-16T13:25:57Z</time>
      </trkpt>
      <trkpt lat="28.5512622" lon="-16.2692250">
        <ele>508.1940918</ele>
        <time>2007-11-16T13:26:11Z</time>
      </trkpt>
      <trkpt lat="28.5512772" lon="-16.2692265">
        <ele>507.7135010</ele>
        <time>2007-11-16T13:26:13Z</time>
      </trkpt>
      <trkpt lat="28.5512857" lon="-16.2692477">
        <ele>506.2714844</ele>
        <time>2007-11-16T13:26:16Z</time>
      </trkpt>
      <trkpt lat="28.5512342" lon="-16.2693219">
        <ele>504.8294678</ele>
        <time>2007-11-16T13:26:27Z</time>
      </trkpt>
      <trkpt lat="28.5512280" lon="-16.2693384">
        <ele>503.8681641</ele>
        <time>2007-11-16T13:26:29Z</time>
      </trkpt>
      <trkpt lat="28.5512168" lon="-16.2693491">
        <ele>502.9067383</ele>
        <time>2007-11-16T13:26:31Z</time>
      </trkpt>
      <trkpt lat="28.5511716" lon="-16.2693854">
        <ele>501.4648438</ele>
        <time>2007-11-16T13:26:37Z</time>
      </trkpt>
      <trkpt lat="28.5511530" lon="-16.2694408">
        <ele>499.0615234</ele>
        <time>2007-11-16T13:26:48Z</time>
      </trkpt>
      <trkpt lat="28.5511457" lon="-16.2694669">
        <ele>497.1389160</ele>
        <time>2007-11-16T13:26:57Z</time>
      </trkpt>
      <trkpt lat="28.5511489" lon="-16.2694782">
        <ele>496.6583252</ele>
        <time>2007-11-16T13:26:59Z</time>
      </trkpt>
      <trkpt lat="28.5510718" lon="-16.2696408">
        <ele>496.6583252</ele>
        <time>2007-11-16T13:27:14Z</time>
      </trkpt>
      <trkpt lat="28.5511092" lon="-16.2697196">
        <ele>493.7742920</ele>
        <time>2007-11-16T13:27:23Z</time>
      </trkpt>
      <trkpt lat="28.5511484" lon="-16.2698070">
        <ele>491.3709717</ele>
        <time>2007-11-16T13:27:34Z</time>
      </trkpt>
      <trkpt lat="28.5511954" lon="-16.2699210">
        <ele>487.5256348</ele>
        <time>2007-11-16T13:27:48Z</time>
      </trkpt>
      <trkpt lat="28.5512044" lon="-16.2699801">
        <ele>485.1224365</ele>
        <time>2007-11-16T13:27:55Z</time>
      </trkpt>
      <trkpt lat="28.5511980" lon="-16.2701374">
        <ele>482.2385254</ele>
        <time>2007-11-16T13:28:10Z</time>
      </trkpt>
      <trkpt lat="28.5510574" lon="-16.2701431">
        <ele>480.3159180</ele>
        <time>2007-11-16T13:28:25Z</time>
      </trkpt>
      <trkpt lat="28.5510172" lon="-16.2701537">
        <ele>476.9512939</ele>
        <time>2007-11-16T13:28:31Z</time>
      </trkpt>
      <trkpt lat="28.5510091" lon="-16.2701502">
        <ele>476.4705811</ele>
        <time>2007-11-16T13:28:32Z</time>
      </trkpt>
      <trkpt lat="28.5509666" lon="-16.2701494">
        <ele>475.9898682</ele>
        <time>2007-11-16T13:28:36Z</time>
      </trkpt>
      <trkpt lat="28.5509032" lon="-16.2701427">
        <ele>475.0286865</ele>
        <time>2007-11-16T13:28:43Z</time>
      </trkpt>
      <trkpt lat="28.5507634" lon="-16.2701640">
        <ele>473.5866699</ele>
        <time>2007-11-16T13:28:55Z</time>
      </trkpt>
      <trkpt lat="28.5506579" lon="-16.2702105">
        <ele>470.2219238</ele>
        <time>2007-11-16T13:29:07Z</time>
      </trkpt>
      <trkpt lat="28.5506447" lon="-16.2702225">
        <ele>469.2607422</ele>
        <time>2007-11-16T13:29:09Z</time>
      </trkpt>
      <trkpt lat="28.5506090" lon="-16.2702547">
        <ele>465.8961182</ele>
        <time>2007-11-16T13:29:15Z</time>
      </trkpt>
      <trkpt lat="28.5505563" lon="-16.2703047">
        <ele>465.4155273</ele>
        <time>2007-11-16T13:29:24Z</time>
      </trkpt>
      <trkpt lat="28.5504764" lon="-16.2703628">
        <ele>461.5701904</ele>
        <time>2007-11-16T13:29:36Z</time>
      </trkpt>
      <trkpt lat="28.5502796" lon="-16.2704081">
        <ele>459.1668701</ele>
        <time>2007-11-16T13:29:55Z</time>
      </trkpt>
      <trkpt lat="28.5501961" lon="-16.2703930">
        <ele>459.6475830</ele>
        <time>2007-11-16T13:30:05Z</time>
      </trkpt>
      <trkpt lat="28.5501000" lon="-16.2703758">
        <ele>460.6087646</ele>
        <time>2007-11-16T13:30:17Z</time>
      </trkpt>
      <trkpt lat="28.5500359" lon="-16.2704375">
        <ele>463.4927979</ele>
        <time>2007-11-16T13:30:28Z</time>
      </trkpt>
      <trkpt lat="28.5499895" lon="-16.2704850">
        <ele>464.9348145</ele>
        <time>2007-11-16T13:30:42Z</time>
      </trkpt>
      <trkpt lat="28.5499669" lon="-16.2705048">
        <ele>464.9348145</ele>
        <time>2007-11-16T13:30:58Z</time>
      </trkpt>
      <trkpt lat="28.5499568" lon="-16.2705249">
        <ele>465.4155273</ele>
        <time>2007-11-16T13:31:00Z</time>
      </trkpt>
      <trkpt lat="28.5500109" lon="-16.2705816">
        <ele>466.8574219</ele>
        <time>2007-11-16T13:31:09Z</time>
      </trkpt>
      <trkpt lat="28.5500876" lon="-16.2706204">
        <ele>469.7413330</ele>
        <time>2007-11-16T13:31:21Z</time>
      </trkpt>
      <trkpt lat="28.5501741" lon="-16.2706562">
        <ele>471.6639404</ele>
        <time>2007-11-16T13:31:33Z</time>
      </trkpt>
      <trkpt lat="28.5502405" lon="-16.2707326">
        <ele>473.1060791</ele>
        <time>2007-11-16T13:31:44Z</time>
      </trkpt>
      <trkpt lat="28.5502026" lon="-16.2707746">
        <ele>476.9512939</ele>
        <time>2007-11-16T13:31:56Z</time>
      </trkpt>
      <trkpt lat="28.5501020" lon="-16.2708110">
        <ele>479.8350830</ele>
        <time>2007-11-16T13:32:14Z</time>
      </trkpt>
      <trkpt lat="28.5500666" lon="-16.2708131">
        <ele>481.2772217</ele>
        <time>2007-11-16T13:32:19Z</time>
      </trkpt>
      <trkpt lat="28.5500859" lon="-16.2708546">
        <ele>483.6804199</ele>
        <time>2007-11-16T13:32:30Z</time>
      </trkpt>
      <trkpt lat="28.5500709" lon="-16.2708856">
        <ele>485.6030273</ele>
        <time>2007-11-16T13:32:42Z</time>
      </trkpt>
      <trkpt lat="28.5500579" lon="-16.2709430">
        <ele>488.4871826</ele>
        <time>2007-11-16T13:32:54Z</time>
      </trkpt>
      <trkpt lat="28.5500658" lon="-16.2710306">
        <ele>489.9290771</ele>
        <time>2007-11-16T13:33:06Z</time>
      </trkpt>
      <trkpt lat="28.5500113" lon="-16.2710539">
        <ele>493.2935791</ele>
        <time>2007-11-16T13:33:20Z</time>
      </trkpt>
      <trkpt lat="28.5499903" lon="-16.2711199">
        <ele>496.6583252</ele>
        <time>2007-11-16T13:33:30Z</time>
      </trkpt>
      <trkpt lat="28.5499837" lon="-16.2711762">
        <ele>499.5422363</ele>
        <time>2007-11-16T13:33:41Z</time>
      </trkpt>
      <trkpt lat="28.5499653" lon="-16.2712544">
        <ele>501.9455566</ele>
        <time>2007-11-16T13:33:55Z</time>
      </trkpt>
      <trkpt lat="28.5498684" lon="-16.2713369">
        <ele>504.3488770</ele>
        <time>2007-11-16T13:34:12Z</time>
      </trkpt>
      <trkpt lat="28.5498110" lon="-16.2714141">
        <ele>507.7135010</ele>
        <time>2007-11-16T13:34:23Z</time>
      </trkpt>
      <trkpt lat="28.5498000" lon="-16.2714398">
        <ele>507.7135010</ele>
        <time>2007-11-16T13:34:26Z</time>
      </trkpt>
      <trkpt lat="28.5497860" lon="-16.2714891">
        <ele>508.1940918</ele>
        <time>2007-11-16T13:34:30Z</time>
      </trkpt>
      <trkpt lat="28.5497823" lon="-16.2715144">
        <ele>508.6746826</ele>
        <time>2007-11-16T13:34:32Z</time>
      </trkpt>
      <trkpt lat="28.5497657" lon="-16.2715792">
        <ele>508.6746826</ele>
        <time>2007-11-16T13:34:37Z</time>
      </trkpt>
      <trkpt lat="28.5497679" lon="-16.2716493">
        <ele>508.6746826</ele>
        <time>2007-11-16T13:34:42Z</time>
      </trkpt>
      <trkpt lat="28.5496491" lon="-16.2719100">
        <ele>507.2327881</ele>
        <time>2007-11-16T13:35:03Z</time>
      </trkpt>
      <trkpt lat="28.5496260" lon="-16.2719988">
        <ele>507.7135010</ele>
        <time>2007-11-16T13:35:10Z</time>
      </trkpt>
      <trkpt lat="28.5495897" lon="-16.2720387">
        <ele>507.7135010</ele>
        <time>2007-11-16T13:35:14Z</time>
      </trkpt>
      <trkpt lat="28.5495730" lon="-16.2720590">
        <ele>508.1940918</ele>
        <time>2007-11-16T13:35:16Z</time>
      </trkpt>
      <trkpt lat="28.5495369" lon="-16.2722188">
        <ele>508.1940918</ele>
        <time>2007-11-16T13:35:28Z</time>
      </trkpt>
      <trkpt lat="28.5494581" lon="-16.2723676">
        <ele>510.1166992</ele>
        <time>2007-11-16T13:35:45Z</time>
      </trkpt>
      <trkpt lat="28.5494349" lon="-16.2724841">
        <ele>512.0394287</ele>
        <time>2007-11-16T13:35:56Z</time>
      </trkpt>
      <trkpt lat="28.5494435" lon="-16.2725525">
        <ele>512.0394287</ele>
        <time>2007-11-16T13:36:01Z</time>
      </trkpt>
      <trkpt lat="28.5494458" lon="-16.2725952">
        <ele>513.4814453</ele>
        <time>2007-11-16T13:36:04Z</time>
      </trkpt>
      <trkpt lat="28.5494535" lon="-16.2727140">
        <ele>515.4040527</ele>
        <time>2007-11-16T13:36:15Z</time>
      </trkpt>
      <trkpt lat="28.5494417" lon="-16.2727482">
        <ele>515.4040527</ele>
        <time>2007-11-16T13:36:18Z</time>
      </trkpt>
      <trkpt lat="28.5494276" lon="-16.2728462">
        <ele>515.8846436</ele>
        <time>2007-11-16T13:36:25Z</time>
      </trkpt>
      <trkpt lat="28.5494158" lon="-16.2730644">
        <ele>516.3652344</ele>
        <time>2007-11-16T13:36:40Z</time>
      </trkpt>
      <trkpt lat="28.5494093" lon="-16.2730923">
        <ele>516.3652344</ele>
        <time>2007-11-16T13:36:42Z</time>
      </trkpt>
      <trkpt lat="28.5494315" lon="-16.2732674">
        <ele>516.8459473</ele>
        <time>2007-11-16T13:36:55Z</time>
      </trkpt>
      <trkpt lat="28.5492868" lon="-16.2734413">
        <ele>514.9233398</ele>
        <time>2007-11-16T13:37:11Z</time>
      </trkpt>
      <trkpt lat="28.5490449" lon="-16.2736160">
        <ele>514.9233398</ele>
        <time>2007-11-16T13:37:33Z</time>
      </trkpt>
      <trkpt lat="28.5488196" lon="-16.2738322">
        <ele>511.5587158</ele>
        <time>2007-11-16T13:37:56Z</time>
      </trkpt>
      <trkpt lat="28.5487980" lon="-16.2738661">
        <ele>510.5972900</ele>
        <time>2007-11-16T13:37:59Z</time>
      </trkpt>
      <trkpt lat="28.5487915" lon="-16.2738880">
        <ele>510.5972900</ele>
        <time>2007-11-16T13:38:01Z</time>
      </trkpt>
      <trkpt lat="28.5488179" lon="-16.2739833">
        <ele>511.0780029</ele>
        <time>2007-11-16T13:38:11Z</time>
      </trkpt>
      <trkpt lat="28.5488309" lon="-16.2740584">
        <ele>513.0007324</ele>
        <time>2007-11-16T13:38:23Z</time>
      </trkpt>
      <trkpt lat="28.5488920" lon="-16.2740991">
        <ele>515.4040527</ele>
        <time>2007-11-16T13:38:34Z</time>
      </trkpt>
      <trkpt lat="28.5489478" lon="-16.2741711">
        <ele>518.7685547</ele>
        <time>2007-11-16T13:38:47Z</time>
      </trkpt>
      <trkpt lat="28.5490050" lon="-16.2742061">
        <ele>520.6912842</ele>
        <time>2007-11-16T13:38:57Z</time>
      </trkpt>
      <trkpt lat="28.5490147" lon="-16.2742667">
        <ele>522.6138916</ele>
        <time>2007-11-16T13:39:10Z</time>
      </trkpt>
      <trkpt lat="28.5490028" lon="-16.2743298">
        <ele>524.5364990</ele>
        <time>2007-11-16T13:39:18Z</time>
      </trkpt>
      <trkpt lat="28.5490065" lon="-16.2743919">
        <ele>526.4591064</ele>
        <time>2007-11-16T13:39:27Z</time>
      </trkpt>
      <trkpt lat="28.5490410" lon="-16.2744443">
        <ele>527.9010010</ele>
        <time>2007-11-16T13:39:39Z</time>
      </trkpt>
      <trkpt lat="28.5490912" lon="-16.2744236">
        <ele>529.8237305</ele>
        <time>2007-11-16T13:39:51Z</time>
      </trkpt>
      <trkpt lat="28.5490837" lon="-16.2745024">
        <ele>531.2657471</ele>
        <time>2007-11-16T13:40:03Z</time>
      </trkpt>
      <trkpt lat="28.5491414" lon="-16.2746168">
        <ele>533.1883545</ele>
        <time>2007-11-16T13:40:18Z</time>
      </trkpt>
      <trkpt lat="28.5492143" lon="-16.2748208">
        <ele>534.1496582</ele>
        <time>2007-11-16T13:40:36Z</time>
      </trkpt>
      <trkpt lat="28.5493060" lon="-16.2750090">
        <ele>534.1496582</ele>
        <time>2007-11-16T13:40:55Z</time>
      </trkpt>
      <trkpt lat="28.5494302" lon="-16.2750075">
        <ele>536.0723877</ele>
        <time>2007-11-16T13:41:12Z</time>
      </trkpt>
      <trkpt lat="28.5494892" lon="-16.2749648">
        <ele>539.9176025</ele>
        <time>2007-11-16T13:41:24Z</time>
      </trkpt>
      <trkpt lat="28.5495177" lon="-16.2749520">
        <ele>541.3594971</ele>
        <time>2007-11-16T13:41:30Z</time>
      </trkpt>
      <trkpt lat="28.5495404" lon="-16.2749116">
        <ele>542.3209229</ele>
        <time>2007-11-16T13:41:37Z</time>
      </trkpt>
      <trkpt lat="28.5495934" lon="-16.2748474">
        <ele>544.2436523</ele>
        <time>2007-11-16T13:41:54Z</time>
      </trkpt>
      <trkpt lat="28.5496140" lon="-16.2749265">
        <ele>547.6081543</ele>
        <time>2007-11-16T13:42:08Z</time>
      </trkpt>
      <trkpt lat="28.5496761" lon="-16.2748337">
        <ele>550.4921875</ele>
        <time>2007-11-16T13:42:25Z</time>
      </trkpt>
      <trkpt lat="28.5497113" lon="-16.2747216">
        <ele>553.3759766</ele>
        <time>2007-11-16T13:42:40Z</time>
      </trkpt>
      <trkpt lat="28.5497138" lon="-16.2747054">
        <ele>554.3374023</ele>
        <time>2007-11-16T13:42:42Z</time>
      </trkpt>
      <trkpt lat="28.5497484" lon="-16.2747635">
        <ele>556.7407227</ele>
        <time>2007-11-16T13:42:56Z</time>
      </trkpt>
      <trkpt lat="28.5497887" lon="-16.2747017">
        <ele>559.1440430</ele>
        <time>2007-11-16T13:43:08Z</time>
      </trkpt>
      <trkpt lat="28.5498461" lon="-16.2747506">
        <ele>561.5473633</ele>
        <time>2007-11-16T13:43:22Z</time>
      </trkpt>
      <trkpt lat="28.5498694" lon="-16.2747757">
        <ele>562.0280762</ele>
        <time>2007-11-16T13:43:27Z</time>
      </trkpt>
      <trkpt lat="28.5499157" lon="-16.2748365">
        <ele>565.3925781</ele>
        <time>2007-11-16T13:43:38Z</time>
      </trkpt>
      <trkpt lat="28.5499430" lon="-16.2749029">
        <ele>566.8344727</ele>
        <time>2007-11-16T13:43:50Z</time>
      </trkpt>
      <trkpt lat="28.5500377" lon="-16.2748055">
        <ele>569.2377930</ele>
        <time>2007-11-16T13:44:07Z</time>
      </trkpt>
      <trkpt lat="28.5500818" lon="-16.2748147">
        <ele>572.6025391</ele>
        <time>2007-11-16T13:44:17Z</time>
      </trkpt>
      <trkpt lat="28.5501407" lon="-16.2748531">
        <ele>575.4863281</ele>
        <time>2007-11-16T13:44:32Z</time>
      </trkpt>
      <trkpt lat="28.5502134" lon="-16.2748599">
        <ele>577.4091797</ele>
        <time>2007-11-16T13:44:43Z</time>
      </trkpt>
      <trkpt lat="28.5503140" lon="-16.2748492">
        <ele>580.7736816</ele>
        <time>2007-11-16T13:44:57Z</time>
      </trkpt>
      <trkpt lat="28.5503894" lon="-16.2748989">
        <ele>583.6574707</ele>
        <time>2007-11-16T13:45:09Z</time>
      </trkpt>
      <trkpt lat="28.5504371" lon="-16.2749026">
        <ele>584.1381836</ele>
        <time>2007-11-16T13:45:14Z</time>
      </trkpt>
      <trkpt lat="28.5506391" lon="-16.2749422">
        <ele>585.5800781</ele>
        <time>2007-11-16T13:45:34Z</time>
      </trkpt>
      <trkpt lat="28.5506972" lon="-16.2751764">
        <ele>582.6962891</ele>
        <time>2007-11-16T13:45:53Z</time>
      </trkpt>
      <trkpt lat="28.5507595" lon="-16.2752866">
        <ele>580.7736816</ele>
        <time>2007-11-16T13:46:03Z</time>
      </trkpt>
      <trkpt lat="28.5508113" lon="-16.2755404">
        <ele>578.3703613</ele>
        <time>2007-11-16T13:46:23Z</time>
      </trkpt>
      <trkpt lat="28.5508723" lon="-16.2757428">
        <ele>578.8510742</ele>
        <time>2007-11-16T13:46:38Z</time>
      </trkpt>
      <trkpt lat="28.5508764" lon="-16.2758045">
        <ele>579.8122559</ele>
        <time>2007-11-16T13:46:44Z</time>
      </trkpt>
      <trkpt lat="28.5510842" lon="-16.2758937">
        <ele>580.2929688</ele>
        <time>2007-11-16T13:47:04Z</time>
      </trkpt>
      <trkpt lat="28.5513126" lon="-16.2759221">
        <ele>583.1767578</ele>
        <time>2007-11-16T13:47:25Z</time>
      </trkpt>
      <trkpt lat="28.5514858" lon="-16.2759440">
        <ele>586.0607910</ele>
        <time>2007-11-16T13:47:41Z</time>
      </trkpt>
      <trkpt lat="28.5517597" lon="-16.2759127">
        <ele>587.0219727</ele>
        <time>2007-11-16T13:48:04Z</time>
      </trkpt>
      <trkpt lat="28.5518647" lon="-16.2759367">
        <ele>588.4643555</ele>
        <time>2007-11-16T13:48:15Z</time>
      </trkpt>
      <trkpt lat="28.5518726" lon="-16.2761740">
        <ele>587.5026855</ele>
        <time>2007-11-16T13:48:33Z</time>
      </trkpt>
      <trkpt lat="28.5518913" lon="-16.2763159">
        <ele>587.5026855</ele>
        <time>2007-11-16T13:48:43Z</time>
      </trkpt>
      <trkpt lat="28.5519136" lon="-16.2764957">
        <ele>587.5026855</ele>
        <time>2007-11-16T13:48:57Z</time>
      </trkpt>
      <trkpt lat="28.5519224" lon="-16.2765195">
        <ele>587.5026855</ele>
        <time>2007-11-16T13:48:59Z</time>
      </trkpt>
      <trkpt lat="28.5519368" lon="-16.2765763">
        <ele>587.5026855</ele>
        <time>2007-11-16T13:49:03Z</time>
      </trkpt>
      <trkpt lat="28.5519415" lon="-16.2766576">
        <ele>586.5415039</ele>
        <time>2007-11-16T13:49:10Z</time>
      </trkpt>
      <trkpt lat="28.5519353" lon="-16.2768363">
        <ele>582.2155762</ele>
        <time>2007-11-16T13:49:25Z</time>
      </trkpt>
      <trkpt lat="28.5518773" lon="-16.2770307">
        <ele>582.2155762</ele>
        <time>2007-11-16T13:49:42Z</time>
      </trkpt>
      <trkpt lat="28.5518995" lon="-16.2771169">
        <ele>585.5800781</ele>
        <time>2007-11-16T13:49:54Z</time>
      </trkpt>
      <trkpt lat="28.5519804" lon="-16.2771923">
        <ele>588.4643555</ele>
        <time>2007-11-16T13:50:07Z</time>
      </trkpt>
      <trkpt lat="28.5520087" lon="-16.2772540">
        <ele>589.9062500</ele>
        <time>2007-11-16T13:50:21Z</time>
      </trkpt>
      <trkpt lat="28.5519747" lon="-16.2773084">
        <ele>593.2707520</ele>
        <time>2007-11-16T13:50:31Z</time>
      </trkpt>
      <trkpt lat="28.5519913" lon="-16.2773679">
        <ele>596.6354980</ele>
        <time>2007-11-16T13:50:42Z</time>
      </trkpt>
      <trkpt lat="28.5520570" lon="-16.2774079">
        <ele>599.0385742</ele>
        <time>2007-11-16T13:50:55Z</time>
      </trkpt>
      <trkpt lat="28.5520610" lon="-16.2774141">
        <ele>599.0385742</ele>
        <time>2007-11-16T13:50:56Z</time>
      </trkpt>
      <trkpt lat="28.5520758" lon="-16.2775078">
        <ele>601.9226074</ele>
        <time>2007-11-16T13:51:12Z</time>
      </trkpt>
      <trkpt lat="28.5521124" lon="-16.2775820">
        <ele>605.2873535</ele>
        <time>2007-11-16T13:51:23Z</time>
      </trkpt>
      <trkpt lat="28.5521575" lon="-16.2776808">
        <ele>608.6518555</ele>
        <time>2007-11-16T13:51:37Z</time>
      </trkpt>
      <trkpt lat="28.5521817" lon="-16.2776943">
        <ele>610.5744629</ele>
        <time>2007-11-16T13:51:46Z</time>
      </trkpt>
      <trkpt lat="28.5522745" lon="-16.2776677">
        <ele>612.0166016</ele>
        <time>2007-11-16T13:51:57Z</time>
      </trkpt>
      <trkpt lat="28.5523994" lon="-16.2776745">
        <ele>614.9003906</ele>
        <time>2007-11-16T13:52:12Z</time>
      </trkpt>
      <trkpt lat="28.5524725" lon="-16.2776998">
        <ele>617.3037109</ele>
        <time>2007-11-16T13:52:20Z</time>
      </trkpt>
      <trkpt lat="28.5526406" lon="-16.2776342">
        <ele>619.7070313</ele>
        <time>2007-11-16T13:52:37Z</time>
      </trkpt>
      <trkpt lat="28.5527075" lon="-16.2775907">
        <ele>621.6296387</ele>
        <time>2007-11-16T13:52:44Z</time>
      </trkpt>
      <trkpt lat="28.5527173" lon="-16.2775900">
        <ele>622.1103516</ele>
        <time>2007-11-16T13:52:45Z</time>
      </trkpt>
      <trkpt lat="28.5529310" lon="-16.2774772">
        <ele>624.5136719</ele>
        <time>2007-11-16T13:53:06Z</time>
      </trkpt>
      <trkpt lat="28.5530859" lon="-16.2773479">
        <ele>626.9169922</ele>
        <time>2007-11-16T13:53:23Z</time>
      </trkpt>
      <trkpt lat="28.5533031" lon="-16.2772295">
        <ele>628.3588867</ele>
        <time>2007-11-16T13:53:44Z</time>
      </trkpt>
      <trkpt lat="28.5534680" lon="-16.2770910">
        <ele>629.3200684</ele>
        <time>2007-11-16T13:54:04Z</time>
      </trkpt>
      <trkpt lat="28.5537265" lon="-16.2769918">
        <ele>631.2429199</ele>
        <time>2007-11-16T13:54:27Z</time>
      </trkpt>
      <trkpt lat="28.5539342" lon="-16.2769083">
        <ele>634.6074219</ele>
        <time>2007-11-16T13:54:45Z</time>
      </trkpt>
      <trkpt lat="28.5540514" lon="-16.2768260">
        <ele>636.0495605</ele>
        <time>2007-11-16T13:54:58Z</time>
      </trkpt>
      <trkpt lat="28.5541527" lon="-16.2767576">
        <ele>635.0881348</ele>
        <time>2007-11-16T13:55:11Z</time>
      </trkpt>
      <trkpt lat="28.5541882" lon="-16.2767661">
        <ele>634.6074219</ele>
        <time>2007-11-16T13:55:30Z</time>
      </trkpt>
    </trkseg>
  </trk>

</gpx>
